DAL102 KJFK-EDDF
Flight info
| Callsign | DAL102 |
|---|---|
| Flight time | 7h 3m |
| Altitude | 37000 |
| Route | JFK5 BETTE RIFLE Q430 ACK BRADD N261B NICSO/M081F390 4850N 5040N 5130N N5120 ADARA LEKVA ENJEX ADHAV ZIPWE SAWPE Q63 CPT UL9 BIG L607 KONAN UL607 SPI T180 NIVNU T847 IMCOM |
| Aircraft | A333/H-SDFGIRWXY/C |
Departure
| Time | 2026-05-05 08:33 |
|---|---|
| Airport | John F. Kennedy International Airport (KJFK) |
Arrival
| Time | 2026-05-05 15:36 |
|---|---|
| Airport | Frankfurt Main Airport (EDDF) |
| Time | Latitude | Longitude | Altitude | Speed | Heading |
|---|---|---|---|---|---|
| 2026-05-05 08:13 | 40.63984 | -73.78243 | 24 ft | 0 kts | 61° |
| 2026-05-05 08:22 | 40.63983 | -73.78247 | 23 ft | 2 kts | 61° |
| 2026-05-05 08:22 | 40.63976 | -73.78264 | 23 ft | 2 kts | 61° |
| 2026-05-05 08:23 | 40.63969 | -73.78278 | 23 ft | 2 kts | 81° |
| 2026-05-05 08:23 | 40.63967 | -73.78289 | 23 ft | 1 kts | 113° |
| 2026-05-05 08:23 | 40.63968 | -73.78298 | 23 ft | 1 kts | 149° |
| 2026-05-05 08:23 | 40.63979 | -73.78304 | 23 ft | 2 kts | 161° |
| 2026-05-05 08:24 | 40.63988 | -73.78308 | 23 ft | 0 kts | 153° |
| 2026-05-05 08:24 | 40.63968 | -73.78346 | 23 ft | 0 kts | 153° |
| 2026-05-05 08:25 | 40.63957 | -73.78338 | 23 ft | 10 kts | 153° |
| 2026-05-05 08:25 | 40.63860 | -73.78294 | 23 ft | 19 kts | 169° |
| 2026-05-05 08:25 | 40.63705 | -73.78265 | 23 ft | 26 kts | 174° |
| 2026-05-05 08:25 | 40.63506 | -73.78238 | 22 ft | 32 kts | 165° |
| 2026-05-05 08:26 | 40.63343 | -73.78108 | 22 ft | 21 kts | 109° |
| 2026-05-05 08:26 | 40.63329 | -73.77932 | 22 ft | 18 kts | 78° |
| 2026-05-05 08:26 | 40.63391 | -73.77802 | 22 ft | 16 kts | 40° |
| 2026-05-05 08:26 | 40.63473 | -73.77732 | 23 ft | 13 kts | 30° |
| 2026-05-05 08:27 | 40.63545 | -73.77676 | 23 ft | 11 kts | 30° |
| 2026-05-05 08:27 | 40.63615 | -73.77622 | 23 ft | 13 kts | 31° |
| 2026-05-05 08:27 | 40.63659 | -73.77588 | 23 ft | 15 kts | 31° |
| 2026-05-05 08:27 | 40.63766 | -73.77504 | 24 ft | 20 kts | 31° |
| 2026-05-05 08:28 | 40.63902 | -73.77398 | 24 ft | 25 kts | 31° |
| 2026-05-05 08:28 | 40.64064 | -73.77269 | 24 ft | 28 kts | 31° |
| 2026-05-05 08:28 | 40.64224 | -73.77140 | 24 ft | 26 kts | 32° |
| 2026-05-05 08:28 | 40.64367 | -73.77023 | 24 ft | 23 kts | 32° |
| 2026-05-05 08:29 | 40.64506 | -73.76971 | 25 ft | 18 kts | 6° |
| 2026-05-05 08:29 | 40.64611 | -73.76906 | 25 ft | 15 kts | 30° |
| 2026-05-05 08:29 | 40.64688 | -73.76849 | 24 ft | 14 kts | 30° |
| 2026-05-05 08:30 | 40.64824 | -73.76742 | 24 ft | 10 kts | 32° |
| 2026-05-05 08:30 | 40.64907 | -73.76674 | 24 ft | 19 kts | 31° |
| 2026-05-05 08:30 | 40.65030 | -73.76582 | 24 ft | 20 kts | 29° |
| 2026-05-05 08:30 | 40.65094 | -73.76520 | 24 ft | 11 kts | 60° |
| 2026-05-05 08:31 | 40.65056 | -73.76380 | 24 ft | 17 kts | 124° |
| 2026-05-05 08:31 | 40.64988 | -73.76373 | 24 ft | 0 kts | 216° |
| 2026-05-05 08:32 | 40.64961 | -73.76399 | 24 ft | 23 kts | 216° |
| 2026-05-05 08:32 | 40.64667 | -73.76631 | 24 ft | 76 kts | 210° |
| 2026-05-05 08:32 | 40.64073 | -73.77097 | 25 ft | 122 kts | 211° |
| 2026-05-05 08:32 | 40.63219 | -73.77763 | 26 ft | 160 kts | 210° |
| 2026-05-05 08:33 | 40.62239 | -73.78529 | 307 ft | 167 kts | 209° |
| 2026-05-05 08:33 | 40.61244 | -73.79335 | 733 ft | 168 kts | 211° |
| 2026-05-05 08:33 | 40.60252 | -73.80174 | 1071 ft | 177 kts | 211° |
| 2026-05-05 08:33 | 40.59175 | -73.81085 | 1337 ft | 193 kts | 211° |
| 2026-05-05 08:34 | 40.57861 | -73.81607 | 1602 ft | 208 kts | 177° |
| 2026-05-05 08:34 | 40.56444 | -73.80991 | 1854 ft | 231 kts | 144° |
| 2026-05-05 08:34 | 40.55394 | -73.79300 | 2275 ft | 250 kts | 114° |
| 2026-05-05 08:34 | 40.55116 | -73.77024 | 2933 ft | 260 kts | 85° |
| 2026-05-05 08:35 | 40.55441 | -73.74666 | 3695 ft | 265 kts | 78° |
| 2026-05-05 08:35 | 40.55873 | -73.72306 | 4480 ft | 268 kts | 78° |
| 2026-05-05 08:35 | 40.56322 | -73.69917 | 5256 ft | 271 kts | 78° |
| 2026-05-05 08:35 | 40.56779 | -73.67501 | 6017 ft | 274 kts | 78° |
| 2026-05-05 08:36 | 40.57242 | -73.65064 | 6759 ft | 277 kts | 78° |
| 2026-05-05 08:36 | 40.57709 | -73.62607 | 7483 ft | 280 kts | 78° |
| 2026-05-05 08:36 | 40.58188 | -73.60099 | 8197 ft | 283 kts | 78° |
| 2026-05-05 08:36 | 40.58666 | -73.57604 | 8885 ft | 286 kts | 78° |
| 2026-05-05 08:37 | 40.59153 | -73.55064 | 9563 ft | 289 kts | 78° |
| 2026-05-05 08:37 | 40.59640 | -73.52537 | 10142 ft | 295 kts | 78° |
| 2026-05-05 08:37 | 40.59975 | -73.49795 | 10419 ft | 309 kts | 93° |
| 2026-05-05 08:37 | 40.59903 | -73.48044 | 10658 ft | 316 kts | 97° |
| 2026-05-05 08:38 | 40.59678 | -73.45114 | 11045 ft | 330 kts | 98° |
| 2026-05-05 08:38 | 40.59418 | -73.42056 | 11431 ft | 345 kts | 98° |
| 2026-05-05 08:38 | 40.59143 | -73.38859 | 11852 ft | 358 kts | 98° |
| 2026-05-05 08:38 | 40.58862 | -73.35580 | 12455 ft | 365 kts | 98° |
| 2026-05-05 08:39 | 40.58579 | -73.32285 | 13149 ft | 369 kts | 98° |
| 2026-05-05 08:39 | 40.58289 | -73.28920 | 13867 ft | 373 kts | 98° |
| 2026-05-05 08:39 | 40.57998 | -73.25534 | 14574 ft | 376 kts | 98° |
| 2026-05-05 08:39 | 40.57703 | -73.22113 | 15270 ft | 380 kts | 98° |
| 2026-05-05 08:40 | 40.57405 | -73.18643 | 15958 ft | 384 kts | 98° |
| 2026-05-05 08:40 | 40.57105 | -73.15162 | 16591 ft | 389 kts | 99° |
| 2026-05-05 08:40 | 40.56800 | -73.11612 | 17210 ft | 394 kts | 99° |
| 2026-05-05 08:40 | 40.56494 | -73.08032 | 17859 ft | 398 kts | 99° |
| 2026-05-05 08:41 | 40.56244 | -73.04404 | 18489 ft | 403 kts | 92° |
| 2026-05-05 08:41 | 40.56359 | -73.02102 | 18859 ft | 408 kts | 84° |
| 2026-05-05 08:41 | 40.57067 | -72.98462 | 19430 ft | 416 kts | 73° |
| 2026-05-05 08:41 | 40.58069 | -72.94851 | 20011 ft | 420 kts | 71° |
| 2026-05-05 08:42 | 40.59114 | -72.91300 | 20563 ft | 425 kts | 71° |
| 2026-05-05 08:42 | 40.60191 | -72.87677 | 21100 ft | 429 kts | 71° |
| 2026-05-05 08:42 | 40.61281 | -72.84018 | 21635 ft | 433 kts | 71° |
| 2026-05-05 08:42 | 40.62380 | -72.80332 | 22152 ft | 436 kts | 71° |
| 2026-05-05 08:43 | 40.63494 | -72.76595 | 22652 ft | 440 kts | 71° |
| 2026-05-05 08:43 | 40.64605 | -72.72867 | 23129 ft | 443 kts | 71° |
| 2026-05-05 08:43 | 40.65731 | -72.69090 | 23587 ft | 447 kts | 71° |
| 2026-05-05 08:43 | 40.66876 | -72.65252 | 24024 ft | 450 kts | 71° |
| 2026-05-05 08:44 | 40.68015 | -72.61449 | 24445 ft | 453 kts | 72° |
| 2026-05-05 08:44 | 40.69081 | -72.57522 | 24852 ft | 455 kts | 75° |
| 2026-05-05 08:44 | 40.70065 | -72.53588 | 25241 ft | 458 kts | 75° |
| 2026-05-05 08:44 | 40.71040 | -72.49613 | 25617 ft | 460 kts | 75° |
| 2026-05-05 08:45 | 40.72019 | -72.45599 | 25978 ft | 463 kts | 75° |
| 2026-05-05 08:45 | 40.73008 | -72.41535 | 26324 ft | 465 kts | 76° |
| 2026-05-05 08:45 | 40.73987 | -72.37511 | 26649 ft | 468 kts | 76° |
| 2026-05-05 08:45 | 40.74986 | -72.33408 | 26963 ft | 470 kts | 75° |
| 2026-05-05 08:46 | 40.75985 | -72.29311 | 27270 ft | 472 kts | 75° |
| 2026-05-05 08:46 | 40.76987 | -72.25209 | 27551 ft | 474 kts | 75° |
| 2026-05-05 08:46 | 40.78019 | -72.21107 | 27815 ft | 477 kts | 75° |
| 2026-05-05 08:46 | 40.79090 | -72.16982 | 28068 ft | 479 kts | 74° |
| 2026-05-05 08:47 | 40.80175 | -72.12835 | 28309 ft | 481 kts | 74° |
| 2026-05-05 08:47 | 40.81271 | -72.08647 | 28540 ft | 483 kts | 74° |
| 2026-05-05 08:47 | 40.82355 | -72.04503 | 28756 ft | 484 kts | 74° |
| 2026-05-05 08:47 | 40.83450 | -72.00311 | 28963 ft | 486 kts | 74° |
| 2026-05-05 08:48 | 40.84551 | -71.96097 | 29159 ft | 488 kts | 74° |
| 2026-05-05 08:48 | 40.85654 | -71.91871 | 29349 ft | 489 kts | 74° |
| 2026-05-05 08:48 | 40.86763 | -71.87617 | 29525 ft | 490 kts | 74° |
| 2026-05-05 08:48 | 40.87860 | -71.83411 | 29690 ft | 491 kts | 74° |
| 2026-05-05 08:49 | 40.88970 | -71.79155 | 29881 ft | 492 kts | 75° |
| 2026-05-05 08:49 | 40.90080 | -71.74903 | 30083 ft | 492 kts | 75° |
| 2026-05-05 08:49 | 40.91192 | -71.70647 | 30277 ft | 492 kts | 75° |
| 2026-05-05 08:49 | 40.92306 | -71.66393 | 30471 ft | 492 kts | 75° |
| 2026-05-05 08:50 | 40.93421 | -71.62151 | 30661 ft | 492 kts | 75° |
| 2026-05-05 08:50 | 40.94546 | -71.57872 | 30849 ft | 492 kts | 76° |
| 2026-05-05 08:50 | 40.95658 | -71.53643 | 31045 ft | 492 kts | 76° |
| 2026-05-05 08:50 | 40.96784 | -71.49365 | 31243 ft | 492 kts | 76° |
| 2026-05-05 08:51 | 40.97896 | -71.45140 | 31437 ft | 492 kts | 76° |
| 2026-05-05 08:51 | 40.99018 | -71.40888 | 31630 ft | 491 kts | 76° |
| 2026-05-05 08:51 | 41.00092 | -71.36617 | 31816 ft | 490 kts | 78° |
| 2026-05-05 08:51 | 41.01061 | -71.32335 | 32003 ft | 489 kts | 79° |
| 2026-05-05 08:52 | 41.01999 | -71.28040 | 32192 ft | 488 kts | 79° |
| 2026-05-05 08:52 | 41.02936 | -71.23703 | 32409 ft | 487 kts | 80° |
| 2026-05-05 08:52 | 41.03855 | -71.19435 | 32595 ft | 487 kts | 80° |
| 2026-05-05 08:52 | 41.04779 | -71.15148 | 32757 ft | 488 kts | 80° |
| 2026-05-05 08:53 | 41.05712 | -71.10827 | 32930 ft | 488 kts | 80° |
| 2026-05-05 08:53 | 41.06625 | -71.06551 | 33104 ft | 487 kts | 81° |
| 2026-05-05 08:53 | 41.07541 | -71.02224 | 33280 ft | 487 kts | 81° |
| 2026-05-05 08:53 | 41.08444 | -70.97954 | 33456 ft | 487 kts | 81° |
| 2026-05-05 08:54 | 41.09358 | -70.93635 | 33843 ft | 480 kts | 80° |
| 2026-05-05 08:54 | 41.10247 | -70.89439 | 34054 ft | 480 kts | 80° |
| 2026-05-05 08:54 | 41.11149 | -70.85174 | 34166 ft | 481 kts | 81° |
| 2026-05-05 08:54 | 41.12039 | -70.80916 | 34301 ft | 481 kts | 81° |
| 2026-05-05 08:55 | 41.12927 | -70.76649 | 34451 ft | 481 kts | 81° |
| 2026-05-05 08:55 | 41.13809 | -70.72399 | 34604 ft | 481 kts | 81° |
| 2026-05-05 08:55 | 41.14692 | -70.68144 | 34756 ft | 481 kts | 81° |
| 2026-05-05 08:55 | 41.15569 | -70.63907 | 34905 ft | 481 kts | 81° |
| 2026-05-05 08:56 | 41.16450 | -70.59646 | 35053 ft | 481 kts | 81° |
| 2026-05-05 08:56 | 41.17335 | -70.55361 | 35199 ft | 481 kts | 81° |
| 2026-05-05 08:56 | 41.18210 | -70.51117 | 35342 ft | 481 kts | 81° |
| 2026-05-05 08:56 | 41.19094 | -70.46828 | 35485 ft | 481 kts | 81° |
| 2026-05-05 08:57 | 41.19964 | -70.42598 | 35624 ft | 481 kts | 81° |
| 2026-05-05 08:57 | 41.20842 | -70.38326 | 35762 ft | 481 kts | 81° |
| 2026-05-05 08:57 | 41.21718 | -70.34063 | 35891 ft | 481 kts | 82° |
| 2026-05-05 08:57 | 41.22600 | -70.29762 | 36021 ft | 481 kts | 82° |
| 2026-05-05 08:58 | 41.23471 | -70.25519 | 36150 ft | 481 kts | 82° |
| 2026-05-05 08:58 | 41.25222 | -70.16980 | 36231 ft | 482 kts | 82° |
| 2026-05-05 08:59 | 41.27177 | -70.08491 | 36234 ft | 489 kts | 72° |
| 2026-05-05 08:59 | 41.30751 | -70.00672 | 36235 ft | 503 kts | 57° |
| 2026-05-05 09:00 | 41.35195 | -69.93504 | 36234 ft | 505 kts | 55° |
| 2026-05-05 09:00 | 41.39712 | -69.86423 | 36234 ft | 505 kts | 55° |
| 2026-05-05 09:01 | 41.44233 | -69.79334 | 36234 ft | 505 kts | 55° |
| 2026-05-05 09:01 | 41.48771 | -69.72204 | 36235 ft | 509 kts | 54° |
| 2026-05-05 09:02 | 41.53344 | -69.65000 | 36235 ft | 511 kts | 54° |
| 2026-05-05 09:02 | 41.57917 | -69.57783 | 36235 ft | 511 kts | 54° |
| 2026-05-05 09:03 | 41.62481 | -69.50564 | 36235 ft | 511 kts | 54° |
| 2026-05-05 09:03 | 41.67043 | -69.43333 | 36235 ft | 511 kts | 55° |
| 2026-05-05 09:04 | 41.71601 | -69.36090 | 36235 ft | 511 kts | 55° |
| 2026-05-05 09:04 | 41.76151 | -69.28846 | 36235 ft | 510 kts | 55° |
| 2026-05-05 09:05 | 41.80708 | -69.21572 | 36235 ft | 510 kts | 55° |
| 2026-05-05 09:05 | 41.85247 | -69.14312 | 36234 ft | 510 kts | 55° |
| 2026-05-05 09:06 | 41.89780 | -69.07043 | 36234 ft | 510 kts | 55° |
| 2026-05-05 09:06 | 41.94289 | -68.99798 | 36234 ft | 510 kts | 55° |
| 2026-05-05 09:07 | 41.98819 | -68.92503 | 36234 ft | 510 kts | 55° |
| 2026-05-05 09:07 | 42.03348 | -68.85191 | 36234 ft | 510 kts | 55° |
| 2026-05-05 09:08 | 42.07851 | -68.77906 | 36234 ft | 510 kts | 55° |
| 2026-05-05 09:08 | 42.12355 | -68.70603 | 36234 ft | 510 kts | 55° |
| 2026-05-05 09:09 | 42.16873 | -68.63260 | 36234 ft | 510 kts | 55° |
| 2026-05-05 09:09 | 42.21360 | -68.55952 | 36234 ft | 510 kts | 55° |
| 2026-05-05 09:10 | 42.25868 | -68.48593 | 36234 ft | 509 kts | 56° |
| 2026-05-05 09:10 | 42.30361 | -68.41242 | 36234 ft | 509 kts | 56° |
| 2026-05-05 09:11 | 42.34846 | -68.33889 | 36234 ft | 509 kts | 56° |
| 2026-05-05 09:11 | 42.39329 | -68.26520 | 36234 ft | 509 kts | 56° |
| 2026-05-05 09:12 | 42.43789 | -68.19176 | 36234 ft | 509 kts | 56° |
| 2026-05-05 09:12 | 42.48262 | -68.11793 | 36234 ft | 509 kts | 56° |
| 2026-05-05 09:13 | 42.52730 | -68.04403 | 36234 ft | 509 kts | 56° |
| 2026-05-05 09:13 | 42.57196 | -67.96999 | 36228 ft | 510 kts | 55° |
| 2026-05-05 09:14 | 42.61697 | -67.89519 | 36212 ft | 513 kts | 55° |
| 2026-05-05 09:14 | 42.66169 | -67.82075 | 36211 ft | 513 kts | 55° |
| 2026-05-05 09:15 | 42.70655 | -67.74592 | 36175 ft | 515 kts | 55° |
| 2026-05-05 09:15 | 42.75183 | -67.67020 | 36121 ft | 517 kts | 55° |
| 2026-05-05 09:16 | 42.79692 | -67.59468 | 36117 ft | 517 kts | 55° |
| 2026-05-05 09:16 | 42.84207 | -67.51891 | 36099 ft | 517 kts | 55° |
| 2026-05-05 09:17 | 42.88698 | -67.44343 | 36071 ft | 517 kts | 55° |
| 2026-05-05 09:17 | 42.93224 | -67.36721 | 36068 ft | 517 kts | 55° |
| 2026-05-05 09:18 | 42.97733 | -67.29117 | 36065 ft | 518 kts | 55° |
| 2026-05-05 09:18 | 43.02226 | -67.21532 | 36063 ft | 518 kts | 55° |
| 2026-05-05 09:19 | 43.06754 | -67.13879 | 36061 ft | 518 kts | 55° |
| 2026-05-05 09:19 | 43.11257 | -67.06272 | 36059 ft | 519 kts | 55° |
| 2026-05-05 09:20 | 43.15255 | -66.98192 | 36057 ft | 512 kts | 66° |
| 2026-05-05 09:20 | 43.18582 | -66.89648 | 36053 ft | 511 kts | 68° |
| 2026-05-05 09:21 | 43.21847 | -66.81034 | 36051 ft | 511 kts | 68° |
| 2026-05-05 09:21 | 43.25095 | -66.72422 | 36048 ft | 512 kts | 68° |
| 2026-05-05 09:22 | 43.28342 | -66.63785 | 36045 ft | 512 kts | 68° |
| 2026-05-05 09:22 | 43.31596 | -66.55105 | 36042 ft | 512 kts | 68° |
| 2026-05-05 09:23 | 43.34827 | -66.46459 | 36040 ft | 513 kts | 68° |
| 2026-05-05 09:23 | 43.38070 | -66.37755 | 36037 ft | 513 kts | 68° |
| 2026-05-05 09:24 | 43.41295 | -66.29070 | 36034 ft | 514 kts | 68° |
| 2026-05-05 09:24 | 43.44517 | -66.20368 | 36032 ft | 514 kts | 68° |
| 2026-05-05 09:25 | 43.47750 | -66.11609 | 36030 ft | 514 kts | 68° |
| 2026-05-05 09:25 | 43.50961 | -66.02883 | 36013 ft | 515 kts | 68° |
| 2026-05-05 09:26 | 43.54169 | -65.94137 | 36001 ft | 515 kts | 69° |
| 2026-05-05 09:26 | 43.57375 | -65.85371 | 36000 ft | 515 kts | 69° |
| 2026-05-05 09:27 | 43.60582 | -65.76574 | 36000 ft | 514 kts | 69° |
| 2026-05-05 09:27 | 43.63777 | -65.67782 | 36000 ft | 514 kts | 69° |
| 2026-05-05 09:28 | 43.66947 | -65.59033 | 36000 ft | 514 kts | 69° |
| 2026-05-05 09:28 | 43.70128 | -65.50226 | 36000 ft | 513 kts | 69° |
| 2026-05-05 09:29 | 43.73286 | -65.41455 | 36000 ft | 513 kts | 69° |
| 2026-05-05 09:29 | 43.76453 | -65.32631 | 36000 ft | 513 kts | 69° |
| 2026-05-05 09:30 | 43.79597 | -65.23842 | 36000 ft | 512 kts | 69° |
| 2026-05-05 09:30 | 43.82736 | -65.15041 | 36000 ft | 512 kts | 69° |
| 2026-05-05 09:31 | 43.85856 | -65.06265 | 36000 ft | 512 kts | 69° |
| 2026-05-05 09:31 | 43.88986 | -64.97432 | 36000 ft | 511 kts | 69° |
| 2026-05-05 09:32 | 43.92093 | -64.88637 | 36000 ft | 511 kts | 69° |
| 2026-05-05 09:32 | 43.95192 | -64.79837 | 36000 ft | 511 kts | 69° |
| 2026-05-05 09:33 | 43.98288 | -64.71018 | 36000 ft | 511 kts | 69° |
| 2026-05-05 09:33 | 44.01384 | -64.62166 | 36000 ft | 512 kts | 70° |
| 2026-05-05 09:34 | 44.04479 | -64.53294 | 36047 ft | 510 kts | 70° |
| 2026-05-05 09:34 | 44.07545 | -64.44475 | 36066 ft | 511 kts | 70° |
| 2026-05-05 09:35 | 44.10614 | -64.35616 | 36069 ft | 511 kts | 70° |
| 2026-05-05 09:35 | 44.15215 | -64.22286 | 36072 ft | 511 kts | 70° |
| 2026-05-05 09:36 | 44.18266 | -64.13409 | 36074 ft | 510 kts | 70° |
| 2026-05-05 09:36 | 44.21298 | -64.04559 | 36076 ft | 510 kts | 70° |
| 2026-05-05 09:37 | 44.24334 | -63.95669 | 36077 ft | 510 kts | 70° |
| 2026-05-05 09:37 | 44.27362 | -63.86772 | 36078 ft | 510 kts | 70° |
| 2026-05-05 09:38 | 44.30381 | -63.77875 | 36079 ft | 510 kts | 71° |
| 2026-05-05 09:38 | 44.33403 | -63.68937 | 36079 ft | 510 kts | 71° |
| 2026-05-05 09:39 | 44.36410 | -63.60017 | 36080 ft | 510 kts | 71° |
| 2026-05-05 09:39 | 44.39406 | -63.51097 | 36080 ft | 510 kts | 71° |
| 2026-05-05 09:40 | 44.42386 | -63.42199 | 36080 ft | 509 kts | 71° |
| 2026-05-05 09:40 | 44.45370 | -63.33255 | 36080 ft | 509 kts | 71° |
| 2026-05-05 09:41 | 44.48344 | -63.24316 | 36080 ft | 509 kts | 71° |
| 2026-05-05 09:41 | 44.51311 | -63.15365 | 36080 ft | 509 kts | 71° |
| 2026-05-05 09:42 | 44.54272 | -63.06405 | 36080 ft | 509 kts | 71° |
| 2026-05-05 09:42 | 44.57233 | -62.97414 | 36080 ft | 509 kts | 71° |
| 2026-05-05 09:43 | 44.60181 | -62.88432 | 36109 ft | 509 kts | 71° |
| 2026-05-05 09:43 | 44.63116 | -62.79458 | 36110 ft | 509 kts | 71° |
| 2026-05-05 09:44 | 44.66034 | -62.70507 | 36110 ft | 509 kts | 71° |
| 2026-05-05 09:44 | 44.68955 | -62.61521 | 36184 ft | 509 kts | 71° |
| 2026-05-05 09:45 | 44.71874 | -62.52503 | 36189 ft | 509 kts | 71° |
| 2026-05-05 09:45 | 44.74790 | -62.43469 | 36189 ft | 509 kts | 71° |
| 2026-05-05 09:46 | 44.77691 | -62.34449 | 36189 ft | 508 kts | 72° |
| 2026-05-05 09:46 | 44.80583 | -62.25426 | 36189 ft | 508 kts | 72° |
| 2026-05-05 09:47 | 44.83459 | -62.16423 | 36189 ft | 508 kts | 72° |
| 2026-05-05 09:47 | 44.86346 | -62.07350 | 36082 ft | 513 kts | 69° |
| 2026-05-05 09:48 | 44.89257 | -61.98170 | 36046 ft | 514 kts | 69° |
| 2026-05-05 09:48 | 44.92148 | -61.89025 | 36039 ft | 514 kts | 69° |
| 2026-05-05 09:49 | 44.95048 | -61.79821 | 36034 ft | 515 kts | 69° |
| 2026-05-05 09:49 | 44.97935 | -61.70626 | 36028 ft | 515 kts | 69° |
| 2026-05-05 09:50 | 45.00816 | -61.61416 | 35986 ft | 515 kts | 69° |
| 2026-05-05 09:50 | 45.03683 | -61.52222 | 35927 ft | 515 kts | 69° |
| 2026-05-05 09:51 | 45.06559 | -61.42962 | 35917 ft | 516 kts | 68° |
| 2026-05-05 09:51 | 45.09428 | -61.33696 | 35916 ft | 516 kts | 68° |
| 2026-05-05 09:52 | 45.12272 | -61.24477 | 35916 ft | 516 kts | 68° |
| 2026-05-05 09:52 | 45.15125 | -61.15194 | 35916 ft | 516 kts | 68° |
| 2026-05-05 09:53 | 45.17972 | -61.05899 | 35916 ft | 516 kts | 68° |
| 2026-05-05 09:53 | 45.20799 | -60.96637 | 35916 ft | 516 kts | 68° |
| 2026-05-05 09:54 | 45.23629 | -60.87330 | 35916 ft | 516 kts | 68° |
| 2026-05-05 09:54 | 45.26449 | -60.78024 | 35916 ft | 516 kts | 69° |
| 2026-05-05 09:55 | 45.29271 | -60.68677 | 35916 ft | 516 kts | 69° |
| 2026-05-05 09:55 | 45.32065 | -60.59390 | 35916 ft | 516 kts | 69° |
| 2026-05-05 09:56 | 45.34860 | -60.50064 | 35916 ft | 515 kts | 69° |
| 2026-05-05 09:56 | 45.37649 | -60.40726 | 35916 ft | 515 kts | 69° |
| 2026-05-05 09:57 | 45.40425 | -60.31396 | 35916 ft | 515 kts | 69° |
| 2026-05-05 09:57 | 45.43202 | -60.22027 | 35916 ft | 517 kts | 68° |
| 2026-05-05 09:58 | 45.45982 | -60.12616 | 35916 ft | 517 kts | 68° |
| 2026-05-05 09:58 | 45.48746 | -60.03226 | 35916 ft | 516 kts | 68° |
| 2026-05-05 09:59 | 45.51493 | -59.93859 | 35916 ft | 516 kts | 69° |
| 2026-05-05 09:59 | 45.54238 | -59.84461 | 35916 ft | 516 kts | 69° |
| 2026-05-05 10:00 | 45.56985 | -59.75023 | 35916 ft | 516 kts | 69° |
| 2026-05-05 10:00 | 45.59707 | -59.65639 | 35916 ft | 516 kts | 69° |
| 2026-05-05 10:01 | 45.62437 | -59.56190 | 35916 ft | 516 kts | 69° |
| 2026-05-05 10:01 | 45.65144 | -59.46785 | 35916 ft | 515 kts | 69° |
| 2026-05-05 10:02 | 45.67852 | -59.37339 | 35916 ft | 515 kts | 70° |
| 2026-05-05 10:02 | 45.70538 | -59.27938 | 35916 ft | 515 kts | 70° |
| 2026-05-05 10:03 | 45.73227 | -59.18492 | 35916 ft | 515 kts | 70° |
| 2026-05-05 10:03 | 45.75905 | -59.09044 | 35916 ft | 515 kts | 70° |
| 2026-05-05 10:04 | 45.78584 | -58.99560 | 35916 ft | 515 kts | 70° |
| 2026-05-05 10:04 | 45.81237 | -58.90132 | 35916 ft | 514 kts | 70° |
| 2026-05-05 10:05 | 45.83892 | -58.80661 | 35916 ft | 514 kts | 70° |
| 2026-05-05 10:05 | 45.86535 | -58.71197 | 35916 ft | 514 kts | 70° |
| 2026-05-05 10:06 | 45.89173 | -58.61717 | 35916 ft | 514 kts | 71° |
| 2026-05-05 10:06 | 45.91810 | -58.52201 | 35916 ft | 514 kts | 71° |
| 2026-05-05 10:07 | 45.94421 | -58.42745 | 35916 ft | 514 kts | 71° |
| 2026-05-05 10:07 | 45.97033 | -58.33248 | 35916 ft | 514 kts | 71° |
| 2026-05-05 10:08 | 45.99636 | -58.23745 | 35916 ft | 513 kts | 71° |
| 2026-05-05 10:08 | 46.02241 | -58.14201 | 35916 ft | 513 kts | 71° |
| 2026-05-05 10:09 | 46.04819 | -58.04716 | 35916 ft | 513 kts | 71° |
| 2026-05-05 10:09 | 46.07407 | -57.95161 | 35901 ft | 514 kts | 71° |
| 2026-05-05 10:10 | 46.09982 | -57.85616 | 35814 ft | 514 kts | 72° |
| 2026-05-05 10:10 | 46.12549 | -57.76062 | 35789 ft | 514 kts | 72° |
| 2026-05-05 10:11 | 46.15098 | -57.66538 | 35742 ft | 513 kts | 72° |
| 2026-05-05 10:11 | 46.17650 | -57.56965 | 35740 ft | 513 kts | 72° |
| 2026-05-05 10:12 | 46.20190 | -57.47400 | 35740 ft | 513 kts | 72° |
| 2026-05-05 10:12 | 46.22723 | -57.37827 | 35740 ft | 513 kts | 72° |
| 2026-05-05 10:13 | 46.25256 | -57.28212 | 35740 ft | 513 kts | 72° |
| 2026-05-05 10:13 | 46.27772 | -57.18625 | 35740 ft | 513 kts | 72° |
| 2026-05-05 10:14 | 46.30272 | -57.09061 | 35740 ft | 513 kts | 73° |
| 2026-05-05 10:14 | 46.32774 | -56.99451 | 35740 ft | 513 kts | 73° |
| 2026-05-05 10:15 | 46.35265 | -56.89845 | 35740 ft | 513 kts | 73° |
| 2026-05-05 10:15 | 46.37748 | -56.80232 | 35740 ft | 513 kts | 73° |
| 2026-05-05 10:16 | 46.40230 | -56.70585 | 35740 ft | 512 kts | 73° |
| 2026-05-05 10:16 | 46.42690 | -56.60983 | 35740 ft | 512 kts | 73° |
| 2026-05-05 10:17 | 46.45157 | -56.51316 | 35740 ft | 512 kts | 73° |
| 2026-05-05 10:17 | 46.47600 | -56.41703 | 35740 ft | 512 kts | 73° |
| 2026-05-05 10:18 | 46.50043 | -56.32055 | 35740 ft | 512 kts | 73° |
| 2026-05-05 10:18 | 46.52477 | -56.22402 | 35740 ft | 512 kts | 73° |
| 2026-05-05 10:19 | 46.54911 | -56.12708 | 35740 ft | 512 kts | 73° |
| 2026-05-05 10:19 | 46.57321 | -56.03069 | 35740 ft | 512 kts | 73° |
| 2026-05-05 10:20 | 46.59737 | -55.93374 | 35832 ft | 512 kts | 74° |
| 2026-05-05 10:20 | 46.62134 | -55.83704 | 35932 ft | 513 kts | 74° |
| 2026-05-05 10:21 | 46.64539 | -55.73969 | 36032 ft | 514 kts | 74° |
| 2026-05-05 10:21 | 46.66943 | -55.64200 | 36131 ft | 514 kts | 74° |
| 2026-05-05 10:22 | 46.69333 | -55.54445 | 36231 ft | 514 kts | 74° |
| 2026-05-05 10:22 | 46.71709 | -55.44703 | 36330 ft | 514 kts | 74° |
| 2026-05-05 10:23 | 46.74090 | -55.34905 | 36430 ft | 514 kts | 74° |
| 2026-05-05 10:23 | 46.76451 | -55.25150 | 36529 ft | 514 kts | 75° |
| 2026-05-05 10:24 | 46.78810 | -55.15361 | 36628 ft | 515 kts | 75° |
| 2026-05-05 10:24 | 46.81170 | -55.05523 | 36728 ft | 515 kts | 75° |
| 2026-05-05 10:25 | 46.83510 | -54.95734 | 36827 ft | 515 kts | 75° |
| 2026-05-05 10:25 | 46.85854 | -54.85882 | 36927 ft | 515 kts | 75° |
| 2026-05-05 10:26 | 46.88178 | -54.76077 | 36956 ft | 515 kts | 75° |
| 2026-05-05 10:26 | 46.90506 | -54.66211 | 36956 ft | 515 kts | 75° |
| 2026-05-05 10:27 | 46.92815 | -54.56387 | 36917 ft | 515 kts | 75° |
| 2026-05-05 10:27 | 46.95123 | -54.46524 | 36867 ft | 514 kts | 75° |
| 2026-05-05 10:28 | 46.97418 | -54.36676 | 36817 ft | 514 kts | 75° |
| 2026-05-05 10:28 | 46.99725 | -54.26732 | 36818 ft | 519 kts | 75° |
| 2026-05-05 10:29 | 47.02025 | -54.16768 | 36915 ft | 525 kts | 75° |
| 2026-05-05 10:29 | 47.04358 | -54.06613 | 36968 ft | 531 kts | 76° |
| 2026-05-05 10:30 | 47.06714 | -53.96321 | 37021 ft | 537 kts | 76° |
| 2026-05-05 10:30 | 47.09072 | -53.85973 | 37072 ft | 541 kts | 76° |
| 2026-05-05 10:31 | 47.11440 | -53.75545 | 37121 ft | 542 kts | 76° |
| 2026-05-05 10:31 | 47.13807 | -53.65080 | 37171 ft | 544 kts | 76° |
| 2026-05-05 10:32 | 47.16171 | -53.54578 | 37221 ft | 545 kts | 76° |
| 2026-05-05 10:32 | 47.18539 | -53.44013 | 37271 ft | 547 kts | 76° |
| 2026-05-05 10:33 | 47.20900 | -53.33439 | 37320 ft | 549 kts | 76° |
| 2026-05-05 10:33 | 47.23267 | -53.22787 | 37370 ft | 551 kts | 76° |
| 2026-05-05 10:34 | 47.25631 | -53.12106 | 37420 ft | 553 kts | 76° |
| 2026-05-05 10:34 | 47.27998 | -53.01367 | 37469 ft | 556 kts | 76° |
| 2026-05-05 10:35 | 47.30381 | -52.90509 | 37519 ft | 558 kts | 76° |
| 2026-05-05 10:35 | 47.32738 | -52.79728 | 37569 ft | 560 kts | 76° |
| 2026-05-05 10:36 | 47.35115 | -52.68817 | 37619 ft | 561 kts | 76° |
| 2026-05-05 10:36 | 47.37476 | -52.57942 | 37668 ft | 561 kts | 77° |
| 2026-05-05 10:37 | 47.39833 | -52.47048 | 37718 ft | 561 kts | 77° |
| 2026-05-05 10:37 | 47.42189 | -52.36133 | 37768 ft | 559 kts | 77° |
| 2026-05-05 10:38 | 47.44535 | -52.25240 | 37817 ft | 558 kts | 77° |
| 2026-05-05 10:38 | 47.46861 | -52.14434 | 37867 ft | 556 kts | 77° |
| 2026-05-05 10:39 | 47.49223 | -52.03590 | 37916 ft | 555 kts | 75° |
| 2026-05-05 10:39 | 47.51868 | -51.92926 | 37967 ft | 555 kts | 73° |
| 2026-05-05 10:40 | 47.54587 | -51.82319 | 37990 ft | 554 kts | 73° |
| 2026-05-05 10:40 | 47.57302 | -51.71726 | 37989 ft | 552 kts | 73° |
| 2026-05-05 10:41 | 47.59991 | -51.61198 | 37988 ft | 551 kts | 73° |
| 2026-05-05 10:41 | 47.62679 | -51.50628 | 37986 ft | 549 kts | 73° |
| 2026-05-05 10:42 | 47.66681 | -51.34818 | 37984 ft | 548 kts | 73° |
| 2026-05-05 10:43 | 47.69329 | -51.24300 | 37982 ft | 547 kts | 73° |
| 2026-05-05 10:43 | 47.71966 | -51.13788 | 37981 ft | 546 kts | 73° |
| 2026-05-05 10:44 | 47.74580 | -51.03329 | 37979 ft | 545 kts | 73° |
| 2026-05-05 10:44 | 47.77191 | -50.92840 | 37977 ft | 544 kts | 74° |
| 2026-05-05 10:45 | 47.79790 | -50.82361 | 37976 ft | 543 kts | 74° |
| 2026-05-05 10:45 | 47.82380 | -50.71882 | 37974 ft | 542 kts | 74° |
| 2026-05-05 10:46 | 47.84964 | -50.61392 | 37973 ft | 541 kts | 74° |
| 2026-05-05 10:46 | 47.87532 | -50.50932 | 37971 ft | 541 kts | 74° |
| 2026-05-05 10:47 | 47.90097 | -50.40455 | 37970 ft | 540 kts | 74° |
| 2026-05-05 10:47 | 47.92644 | -50.30031 | 37968 ft | 540 kts | 74° |
| 2026-05-05 10:48 | 47.95193 | -50.19576 | 37967 ft | 539 kts | 74° |
| 2026-05-05 10:48 | 47.97742 | -50.09134 | 37966 ft | 538 kts | 74° |
| 2026-05-05 10:49 | 48.00327 | -49.98664 | 37965 ft | 538 kts | 73° |
| 2026-05-05 10:49 | 48.02925 | -49.88250 | 37963 ft | 538 kts | 73° |
| 2026-05-05 10:50 | 48.05505 | -49.77874 | 37962 ft | 537 kts | 74° |
| 2026-05-05 10:50 | 48.08092 | -49.67428 | 37961 ft | 537 kts | 74° |
| 2026-05-05 10:51 | 48.10651 | -49.57050 | 37960 ft | 536 kts | 74° |
| 2026-05-05 10:51 | 48.13208 | -49.46629 | 37959 ft | 536 kts | 74° |
| 2026-05-05 10:52 | 48.15762 | -49.36175 | 37958 ft | 536 kts | 74° |
| 2026-05-05 10:52 | 48.18293 | -49.25764 | 37957 ft | 535 kts | 74° |
| 2026-05-05 10:53 | 48.20810 | -49.15365 | 37956 ft | 535 kts | 74° |
| 2026-05-05 10:53 | 48.23324 | -49.04932 | 37955 ft | 534 kts | 75° |
| 2026-05-05 10:54 | 48.25825 | -48.94501 | 37954 ft | 534 kts | 75° |
| 2026-05-05 10:54 | 48.28314 | -48.84070 | 37953 ft | 534 kts | 75° |
| 2026-05-05 10:55 | 48.30794 | -48.73633 | 37952 ft | 533 kts | 75° |
| 2026-05-05 10:55 | 48.33271 | -48.63155 | 37840 ft | 533 kts | 75° |
| 2026-05-05 10:56 | 48.35718 | -48.52763 | 37768 ft | 532 kts | 75° |
| 2026-05-05 10:56 | 48.38163 | -48.42324 | 37764 ft | 532 kts | 75° |
| 2026-05-05 10:57 | 48.40597 | -48.31882 | 37764 ft | 532 kts | 75° |
| 2026-05-05 10:57 | 48.43030 | -48.21397 | 37764 ft | 531 kts | 75° |
| 2026-05-05 10:58 | 48.45434 | -48.10986 | 37764 ft | 531 kts | 75° |
| 2026-05-05 10:58 | 48.47847 | -48.00490 | 37764 ft | 531 kts | 75° |
| 2026-05-05 10:59 | 48.50240 | -47.90029 | 37764 ft | 531 kts | 75° |
| 2026-05-05 10:59 | 48.52615 | -47.79596 | 37764 ft | 530 kts | 76° |
| 2026-05-05 11:00 | 48.54995 | -47.69089 | 37764 ft | 530 kts | 76° |
| 2026-05-05 11:00 | 48.57354 | -47.58625 | 37764 ft | 530 kts | 76° |
| 2026-05-05 11:01 | 48.59698 | -47.48178 | 37764 ft | 530 kts | 76° |
| 2026-05-05 11:01 | 48.62039 | -47.37693 | 37764 ft | 529 kts | 76° |
| 2026-05-05 11:02 | 48.64377 | -47.27171 | 37764 ft | 529 kts | 76° |
| 2026-05-05 11:02 | 48.66699 | -47.16671 | 37764 ft | 529 kts | 76° |
| 2026-05-05 11:03 | 48.69008 | -47.06177 | 37764 ft | 529 kts | 76° |
| 2026-05-05 11:03 | 48.71301 | -46.95704 | 37764 ft | 529 kts | 76° |
| 2026-05-05 11:04 | 48.73591 | -46.85193 | 37764 ft | 528 kts | 76° |
| 2026-05-05 11:04 | 48.75883 | -46.74622 | 37764 ft | 528 kts | 76° |
| 2026-05-05 11:05 | 48.78140 | -46.64159 | 37764 ft | 528 kts | 76° |
| 2026-05-05 11:05 | 48.80400 | -46.53630 | 37764 ft | 528 kts | 77° |
| 2026-05-05 11:06 | 48.82658 | -46.43060 | 37764 ft | 528 kts | 77° |
| 2026-05-05 11:06 | 48.84889 | -46.32560 | 37764 ft | 527 kts | 77° |
| 2026-05-05 11:07 | 48.87127 | -46.21974 | 37764 ft | 527 kts | 77° |
| 2026-05-05 11:07 | 48.89338 | -46.11466 | 37764 ft | 527 kts | 77° |
| 2026-05-05 11:08 | 48.91546 | -46.00915 | 37764 ft | 527 kts | 77° |
| 2026-05-05 11:08 | 48.93753 | -45.90320 | 37764 ft | 527 kts | 77° |
| 2026-05-05 11:09 | 48.95934 | -45.79793 | 37764 ft | 527 kts | 77° |
| 2026-05-05 11:09 | 48.98120 | -45.69188 | 37764 ft | 526 kts | 77° |
| 2026-05-05 11:10 | 49.00289 | -45.58608 | 37764 ft | 526 kts | 77° |
| 2026-05-05 11:10 | 49.02448 | -45.48029 | 37764 ft | 526 kts | 77° |
| 2026-05-05 11:11 | 49.04589 | -45.37477 | 37764 ft | 526 kts | 77° |
| 2026-05-05 11:11 | 49.06729 | -45.26878 | 37764 ft | 526 kts | 78° |
| 2026-05-05 11:12 | 49.08859 | -45.16276 | 37764 ft | 526 kts | 78° |
| 2026-05-05 11:12 | 49.10976 | -45.05684 | 37764 ft | 525 kts | 78° |
| 2026-05-05 11:13 | 49.13088 | -44.95056 | 37764 ft | 525 kts | 78° |
| 2026-05-05 11:13 | 49.15187 | -44.84440 | 37764 ft | 525 kts | 78° |
| 2026-05-05 11:14 | 49.17284 | -44.73780 | 37764 ft | 525 kts | 78° |
| 2026-05-05 11:14 | 49.19360 | -44.63168 | 37764 ft | 525 kts | 78° |
| 2026-05-05 11:15 | 49.21424 | -44.52565 | 37764 ft | 525 kts | 78° |
| 2026-05-05 11:15 | 49.23487 | -44.41909 | 37764 ft | 524 kts | 78° |
| 2026-05-05 11:16 | 49.25539 | -44.31250 | 37764 ft | 524 kts | 78° |
| 2026-05-05 11:16 | 49.27571 | -44.20641 | 37764 ft | 524 kts | 78° |
| 2026-05-05 11:17 | 49.29601 | -44.09986 | 37764 ft | 524 kts | 78° |
| 2026-05-05 11:17 | 49.31622 | -43.99322 | 37764 ft | 524 kts | 79° |
| 2026-05-05 11:18 | 49.33632 | -43.88653 | 37764 ft | 524 kts | 79° |
| 2026-05-05 11:18 | 49.35632 | -43.77987 | 37764 ft | 524 kts | 79° |
| 2026-05-05 11:19 | 49.37625 | -43.67297 | 37764 ft | 523 kts | 79° |
| 2026-05-05 11:19 | 49.39605 | -43.56617 | 37764 ft | 523 kts | 79° |
| 2026-05-05 11:20 | 49.41579 | -43.45910 | 37764 ft | 523 kts | 79° |
| 2026-05-05 11:20 | 49.43545 | -43.35192 | 37764 ft | 523 kts | 79° |
| 2026-05-05 11:21 | 49.45494 | -43.24504 | 37764 ft | 523 kts | 79° |
| 2026-05-05 11:21 | 49.47431 | -43.13825 | 37764 ft | 523 kts | 79° |
| 2026-05-05 11:22 | 49.49361 | -43.03123 | 37764 ft | 523 kts | 79° |
| 2026-05-05 11:22 | 49.51285 | -42.92401 | 37764 ft | 523 kts | 79° |
| 2026-05-05 11:23 | 49.53198 | -42.81679 | 37764 ft | 522 kts | 79° |
| 2026-05-05 11:23 | 49.55100 | -42.70955 | 37764 ft | 522 kts | 80° |
| 2026-05-05 11:24 | 49.56995 | -42.60216 | 37764 ft | 522 kts | 80° |
| 2026-05-05 11:24 | 49.58878 | -42.49487 | 37764 ft | 522 kts | 80° |
| 2026-05-05 11:25 | 49.60753 | -42.38741 | 37764 ft | 522 kts | 80° |
| 2026-05-05 11:25 | 49.62616 | -42.28001 | 37764 ft | 522 kts | 80° |
| 2026-05-05 11:26 | 49.64478 | -42.17208 | 37764 ft | 522 kts | 80° |
| 2026-05-05 11:26 | 49.66319 | -42.06481 | 37764 ft | 522 kts | 80° |
| 2026-05-05 11:27 | 49.68162 | -41.95681 | 37764 ft | 521 kts | 80° |
| 2026-05-05 11:27 | 49.69984 | -41.84944 | 37764 ft | 521 kts | 81° |
| 2026-05-05 11:28 | 49.71807 | -41.74139 | 37764 ft | 521 kts | 81° |
| 2026-05-05 11:28 | 49.73611 | -41.63392 | 37764 ft | 521 kts | 81° |
| 2026-05-05 11:29 | 49.75417 | -41.52571 | 37764 ft | 521 kts | 81° |
| 2026-05-05 11:29 | 49.77208 | -41.41781 | 37764 ft | 521 kts | 81° |
| 2026-05-05 11:30 | 49.78984 | -41.31024 | 37764 ft | 521 kts | 81° |
| 2026-05-05 11:30 | 49.80758 | -41.20221 | 37764 ft | 521 kts | 81° |
| 2026-05-05 11:31 | 49.82521 | -41.09428 | 37764 ft | 521 kts | 81° |
| 2026-05-05 11:31 | 49.84281 | -40.98600 | 37764 ft | 520 kts | 81° |
| 2026-05-05 11:32 | 49.86028 | -40.87791 | 37764 ft | 520 kts | 81° |
| 2026-05-05 11:32 | 49.87769 | -40.76971 | 37764 ft | 520 kts | 81° |
| 2026-05-05 11:33 | 49.89507 | -40.66114 | 37764 ft | 520 kts | 81° |
| 2026-05-05 11:33 | 49.91231 | -40.55301 | 37764 ft | 520 kts | 81° |
| 2026-05-05 11:34 | 49.92947 | -40.44489 | 37764 ft | 520 kts | 81° |
| 2026-05-05 11:34 | 49.94661 | -40.33652 | 37764 ft | 520 kts | 81° |
| 2026-05-05 11:35 | 49.96378 | -40.22775 | 37764 ft | 520 kts | 82° |
| 2026-05-05 11:35 | 49.98091 | -40.11917 | 37764 ft | 520 kts | 81° |
| 2026-05-05 11:36 | 49.99778 | -40.01118 | 37764 ft | 519 kts | 82° |
| 2026-05-05 11:36 | 50.01360 | -39.90241 | 37764 ft | 519 kts | 83° |
| 2026-05-05 11:37 | 50.02918 | -39.79320 | 37764 ft | 519 kts | 83° |
| 2026-05-05 11:37 | 50.04453 | -39.68467 | 37764 ft | 518 kts | 83° |
| 2026-05-05 11:38 | 50.05988 | -39.57539 | 37764 ft | 518 kts | 83° |
| 2026-05-05 11:38 | 50.07510 | -39.46628 | 37764 ft | 518 kts | 83° |
| 2026-05-05 11:39 | 50.09018 | -39.35731 | 37764 ft | 518 kts | 83° |
| 2026-05-05 11:39 | 50.10513 | -39.24854 | 37764 ft | 518 kts | 83° |
| 2026-05-05 11:40 | 50.12002 | -39.13948 | 37764 ft | 518 kts | 83° |
| 2026-05-05 11:40 | 50.13480 | -39.03035 | 37764 ft | 518 kts | 84° |
| 2026-05-05 11:41 | 50.14948 | -38.92112 | 37764 ft | 518 kts | 84° |
| 2026-05-05 11:41 | 50.16406 | -38.81187 | 37764 ft | 518 kts | 84° |
| 2026-05-05 11:42 | 50.17860 | -38.70216 | 37764 ft | 517 kts | 84° |
| 2026-05-05 11:42 | 50.19291 | -38.59326 | 37764 ft | 517 kts | 84° |
| 2026-05-05 11:43 | 50.20718 | -38.48388 | 37764 ft | 517 kts | 84° |
| 2026-05-05 11:43 | 50.22140 | -38.37411 | 37764 ft | 517 kts | 84° |
| 2026-05-05 11:44 | 50.23542 | -38.26496 | 37764 ft | 517 kts | 84° |
| 2026-05-05 11:44 | 50.24937 | -38.15550 | 37764 ft | 517 kts | 84° |
| 2026-05-05 11:45 | 50.26323 | -38.04596 | 37764 ft | 517 kts | 84° |
| 2026-05-05 11:45 | 50.27703 | -37.93606 | 37764 ft | 517 kts | 84° |
| 2026-05-05 11:46 | 50.29069 | -37.82632 | 37764 ft | 517 kts | 84° |
| 2026-05-05 11:46 | 50.30422 | -37.71680 | 37764 ft | 516 kts | 85° |
| 2026-05-05 11:47 | 50.31762 | -37.60750 | 37764 ft | 516 kts | 85° |
| 2026-05-05 11:47 | 50.33095 | -37.49778 | 37764 ft | 516 kts | 85° |
| 2026-05-05 11:48 | 50.35081 | -37.33275 | 37764 ft | 516 kts | 85° |
| 2026-05-05 11:48 | 50.36385 | -37.22330 | 37764 ft | 516 kts | 85° |
| 2026-05-05 11:49 | 50.37688 | -37.11305 | 37764 ft | 516 kts | 85° |
| 2026-05-05 11:49 | 50.38971 | -37.00349 | 37764 ft | 516 kts | 85° |
| 2026-05-05 11:50 | 50.40252 | -36.89326 | 37764 ft | 516 kts | 85° |
| 2026-05-05 11:50 | 50.41519 | -36.78327 | 37764 ft | 516 kts | 85° |
| 2026-05-05 11:51 | 50.42776 | -36.67327 | 37764 ft | 515 kts | 85° |
| 2026-05-05 11:51 | 50.44017 | -36.56363 | 37764 ft | 515 kts | 85° |
| 2026-05-05 11:52 | 50.45254 | -36.45354 | 37764 ft | 515 kts | 86° |
| 2026-05-05 11:52 | 50.46483 | -36.34310 | 37764 ft | 515 kts | 86° |
| 2026-05-05 11:53 | 50.47694 | -36.23334 | 37764 ft | 515 kts | 86° |
| 2026-05-05 11:53 | 50.48900 | -36.12311 | 37764 ft | 515 kts | 86° |
| 2026-05-05 11:54 | 50.50099 | -36.01254 | 37764 ft | 515 kts | 86° |
| 2026-05-05 11:54 | 50.51278 | -35.90274 | 37764 ft | 515 kts | 86° |
| 2026-05-05 11:55 | 50.52452 | -35.79248 | 37764 ft | 515 kts | 86° |
| 2026-05-05 11:55 | 50.53620 | -35.68182 | 37766 ft | 514 kts | 86° |
| 2026-05-05 11:56 | 50.54195 | -35.62701 | 37886 ft | 515 kts | 86° |
| 2026-05-05 11:56 | 50.54774 | -35.57134 | 37955 ft | 517 kts | 86° |
| 2026-05-05 11:56 | 50.55923 | -35.46015 | 37972 ft | 521 kts | 86° |
| 2026-05-05 11:57 | 50.57070 | -35.34839 | 37972 ft | 521 kts | 87° |
| 2026-05-05 11:57 | 50.58207 | -35.23654 | 37972 ft | 520 kts | 87° |
| 2026-05-05 11:58 | 50.59336 | -35.12441 | 37972 ft | 520 kts | 87° |
| 2026-05-05 11:58 | 50.60447 | -35.01298 | 37972 ft | 520 kts | 87° |
| 2026-05-05 11:59 | 50.61552 | -34.90105 | 37972 ft | 520 kts | 87° |
| 2026-05-05 11:59 | 50.62649 | -34.78884 | 37972 ft | 520 kts | 87° |
| 2026-05-05 12:00 | 50.63733 | -34.67692 | 37972 ft | 520 kts | 87° |
| 2026-05-05 12:00 | 50.64808 | -34.56485 | 37972 ft | 520 kts | 87° |
| 2026-05-05 12:01 | 50.65866 | -34.45338 | 37972 ft | 520 kts | 88° |
| 2026-05-05 12:01 | 50.66918 | -34.34135 | 37972 ft | 520 kts | 88° |
| 2026-05-05 12:02 | 50.67960 | -34.22934 | 37971 ft | 519 kts | 88° |
| 2026-05-05 12:02 | 50.68992 | -34.11726 | 37971 ft | 519 kts | 88° |
| 2026-05-05 12:03 | 50.70010 | -34.00560 | 37971 ft | 519 kts | 88° |
| 2026-05-05 12:03 | 50.71024 | -33.89308 | 37971 ft | 519 kts | 88° |
| 2026-05-05 12:04 | 50.72027 | -33.78065 | 37971 ft | 519 kts | 88° |
| 2026-05-05 12:04 | 50.73014 | -33.66886 | 37971 ft | 519 kts | 88° |
| 2026-05-05 12:05 | 50.73993 | -33.55683 | 37971 ft | 519 kts | 88° |
| 2026-05-05 12:05 | 50.74963 | -33.44453 | 37971 ft | 519 kts | 88° |
| 2026-05-05 12:06 | 50.75922 | -33.33230 | 37971 ft | 519 kts | 88° |
| 2026-05-05 12:06 | 50.76870 | -33.22015 | 37971 ft | 518 kts | 89° |
| 2026-05-05 12:07 | 50.77812 | -33.10757 | 37970 ft | 518 kts | 89° |
| 2026-05-05 12:07 | 50.78737 | -32.99566 | 37970 ft | 518 kts | 89° |
| 2026-05-05 12:08 | 50.79658 | -32.88298 | 37970 ft | 518 kts | 89° |
| 2026-05-05 12:08 | 50.80566 | -32.77075 | 37970 ft | 518 kts | 89° |
| 2026-05-05 12:09 | 50.81464 | -32.65840 | 37970 ft | 518 kts | 89° |
| 2026-05-05 12:09 | 50.82348 | -32.54648 | 37970 ft | 518 kts | 89° |
| 2026-05-05 12:10 | 50.83226 | -32.43413 | 37970 ft | 518 kts | 89° |
| 2026-05-05 12:10 | 50.84093 | -32.32174 | 37970 ft | 518 kts | 89° |
| 2026-05-05 12:11 | 50.84954 | -32.20899 | 37970 ft | 517 kts | 89° |
| 2026-05-05 12:11 | 50.85798 | -32.09700 | 37970 ft | 517 kts | 89° |
| 2026-05-05 12:12 | 50.86637 | -31.98443 | 37970 ft | 517 kts | 89° |
| 2026-05-05 12:12 | 50.87464 | -31.87216 | 37970 ft | 517 kts | 90° |
| 2026-05-05 12:13 | 50.88283 | -31.75969 | 37969 ft | 517 kts | 90° |
| 2026-05-05 12:13 | 50.89091 | -31.64727 | 37969 ft | 517 kts | 90° |
| 2026-05-05 12:14 | 50.89890 | -31.53477 | 37969 ft | 517 kts | 90° |
| 2026-05-05 12:14 | 50.90680 | -31.42229 | 37969 ft | 517 kts | 90° |
| 2026-05-05 12:15 | 50.91461 | -31.30973 | 37969 ft | 517 kts | 90° |
| 2026-05-05 12:15 | 50.92235 | -31.19676 | 37969 ft | 517 kts | 90° |
| 2026-05-05 12:16 | 50.92994 | -31.08474 | 37969 ft | 516 kts | 90° |
| 2026-05-05 12:16 | 50.93748 | -30.97215 | 37969 ft | 516 kts | 90° |
| 2026-05-05 12:17 | 50.94492 | -30.85967 | 37969 ft | 516 kts | 90° |
| 2026-05-05 12:17 | 50.95230 | -30.74702 | 37969 ft | 516 kts | 90° |
| 2026-05-05 12:18 | 50.95958 | -30.63461 | 37969 ft | 516 kts | 90° |
| 2026-05-05 12:18 | 50.96680 | -30.52197 | 37969 ft | 516 kts | 90° |
| 2026-05-05 12:19 | 50.97395 | -30.40942 | 37969 ft | 516 kts | 90° |
| 2026-05-05 12:19 | 50.98108 | -30.29645 | 37968 ft | 516 kts | 90° |
| 2026-05-05 12:20 | 50.98815 | -30.18387 | 37968 ft | 516 kts | 91° |
| 2026-05-05 12:20 | 50.99524 | -30.07156 | 37968 ft | 516 kts | 90° |
| 2026-05-05 12:21 | 51.00407 | -29.95897 | 37968 ft | 518 kts | 88° |
| 2026-05-05 12:21 | 51.01420 | -29.84599 | 37968 ft | 518 kts | 88° |
| 2026-05-05 12:22 | 51.02432 | -29.73341 | 37968 ft | 518 kts | 88° |
| 2026-05-05 12:22 | 51.03433 | -29.62076 | 37968 ft | 518 kts | 88° |
| 2026-05-05 12:23 | 51.04422 | -29.50841 | 37968 ft | 518 kts | 88° |
| 2026-05-05 12:23 | 51.05402 | -29.39575 | 37968 ft | 518 kts | 88° |
| 2026-05-05 12:24 | 51.06371 | -29.28303 | 37968 ft | 518 kts | 88° |
| 2026-05-05 12:24 | 51.07331 | -29.17023 | 37968 ft | 518 kts | 88° |
| 2026-05-05 12:25 | 51.08280 | -29.05725 | 37968 ft | 517 kts | 89° |
| 2026-05-05 12:25 | 51.09216 | -28.94465 | 37968 ft | 517 kts | 89° |
| 2026-05-05 12:26 | 51.10144 | -28.83157 | 37968 ft | 517 kts | 89° |
| 2026-05-05 12:26 | 51.11056 | -28.71915 | 37967 ft | 517 kts | 89° |
| 2026-05-05 12:27 | 51.11961 | -28.60630 | 37967 ft | 517 kts | 89° |
| 2026-05-05 12:27 | 51.12855 | -28.49344 | 37967 ft | 517 kts | 89° |
| 2026-05-05 12:28 | 51.13735 | -28.38143 | 38094 ft | 505 kts | 88° |
| 2026-05-05 12:28 | 51.14167 | -28.32588 | 38221 ft | 506 kts | 88° |
| 2026-05-05 12:28 | 51.14591 | -28.27096 | 38344 ft | 506 kts | 88° |
| 2026-05-05 12:29 | 51.15015 | -28.21554 | 38469 ft | 507 kts | 88° |
| 2026-05-05 12:29 | 51.15437 | -28.15997 | 38553 ft | 509 kts | 88° |
| 2026-05-05 12:29 | 51.16278 | -28.04813 | 38576 ft | 510 kts | 89° |
| 2026-05-05 12:30 | 51.17108 | -27.93654 | 38578 ft | 510 kts | 89° |
| 2026-05-05 12:30 | 51.17929 | -27.82489 | 38579 ft | 510 kts | 89° |
| 2026-05-05 12:31 | 51.18738 | -27.71328 | 38580 ft | 510 kts | 89° |
| 2026-05-05 12:31 | 51.19537 | -27.60159 | 38581 ft | 510 kts | 89° |
| 2026-05-05 12:32 | 51.20323 | -27.49029 | 38582 ft | 510 kts | 89° |
| 2026-05-05 12:32 | 51.21104 | -27.37816 | 38582 ft | 510 kts | 89° |
| 2026-05-05 12:33 | 51.21869 | -27.26685 | 38583 ft | 510 kts | 89° |
| 2026-05-05 12:33 | 51.22628 | -27.15484 | 38584 ft | 510 kts | 89° |
| 2026-05-05 12:34 | 51.23372 | -27.04343 | 38585 ft | 510 kts | 89° |
| 2026-05-05 12:34 | 51.24108 | -26.93166 | 38585 ft | 509 kts | 89° |
| 2026-05-05 12:35 | 51.24834 | -26.81988 | 38586 ft | 509 kts | 90° |
| 2026-05-05 12:35 | 51.25547 | -26.70839 | 38587 ft | 509 kts | 90° |
| 2026-05-05 12:36 | 51.26254 | -26.59624 | 38588 ft | 509 kts | 90° |
| 2026-05-05 12:36 | 51.26948 | -26.48459 | 38588 ft | 509 kts | 90° |
| 2026-05-05 12:37 | 51.27635 | -26.37222 | 38589 ft | 509 kts | 90° |
| 2026-05-05 12:37 | 51.28306 | -26.26073 | 38590 ft | 509 kts | 90° |
| 2026-05-05 12:38 | 51.28969 | -26.14880 | 38590 ft | 509 kts | 90° |
| 2026-05-05 12:38 | 51.29622 | -26.03694 | 38591 ft | 509 kts | 90° |
| 2026-05-05 12:39 | 51.30266 | -25.92470 | 38592 ft | 509 kts | 90° |
| 2026-05-05 12:39 | 51.30896 | -25.81316 | 38592 ft | 509 kts | 90° |
| 2026-05-05 12:40 | 51.31518 | -25.70117 | 38593 ft | 509 kts | 90° |
| 2026-05-05 12:40 | 51.32129 | -25.58927 | 38593 ft | 508 kts | 90° |
| 2026-05-05 12:41 | 51.32729 | -25.47735 | 38594 ft | 508 kts | 91° |
| 2026-05-05 12:41 | 51.33320 | -25.36530 | 38595 ft | 508 kts | 91° |
| 2026-05-05 12:42 | 51.33901 | -25.25330 | 38595 ft | 508 kts | 91° |
| 2026-05-05 12:42 | 51.34470 | -25.14138 | 38596 ft | 508 kts | 91° |
| 2026-05-05 12:43 | 51.35029 | -25.02937 | 38596 ft | 508 kts | 91° |
| 2026-05-05 12:43 | 51.35578 | -24.91740 | 38597 ft | 508 kts | 91° |
| 2026-05-05 12:44 | 51.36119 | -24.80509 | 38597 ft | 508 kts | 91° |
| 2026-05-05 12:44 | 51.36645 | -24.69345 | 38598 ft | 508 kts | 91° |
| 2026-05-05 12:45 | 51.37164 | -24.58137 | 38598 ft | 508 kts | 91° |
| 2026-05-05 12:45 | 51.37671 | -24.46940 | 38599 ft | 508 kts | 91° |
| 2026-05-05 12:46 | 51.38169 | -24.35737 | 38599 ft | 508 kts | 91° |
| 2026-05-05 12:46 | 51.38656 | -24.24524 | 38600 ft | 507 kts | 91° |
| 2026-05-05 12:47 | 51.39133 | -24.13329 | 38600 ft | 507 kts | 92° |
| 2026-05-05 12:47 | 51.39600 | -24.02127 | 38601 ft | 507 kts | 92° |
| 2026-05-05 12:48 | 51.40057 | -23.90915 | 38601 ft | 507 kts | 92° |
| 2026-05-05 12:48 | 51.40503 | -23.79712 | 38602 ft | 507 kts | 92° |
| 2026-05-05 12:49 | 51.40941 | -23.68463 | 38602 ft | 507 kts | 92° |
| 2026-05-05 12:49 | 51.41366 | -23.57293 | 38602 ft | 507 kts | 92° |
| 2026-05-05 12:50 | 51.41783 | -23.46052 | 38603 ft | 507 kts | 92° |
| 2026-05-05 12:50 | 51.42188 | -23.34880 | 38603 ft | 507 kts | 92° |
| 2026-05-05 12:51 | 51.42584 | -23.23669 | 38603 ft | 507 kts | 92° |
| 2026-05-05 12:51 | 51.42971 | -23.12431 | 38604 ft | 507 kts | 92° |
| 2026-05-05 12:52 | 51.43346 | -23.01264 | 38604 ft | 507 kts | 92° |
| 2026-05-05 12:52 | 51.43712 | -22.90053 | 38605 ft | 507 kts | 93° |
| 2026-05-05 12:53 | 51.44068 | -22.78817 | 38605 ft | 506 kts | 93° |
| 2026-05-05 12:53 | 51.44414 | -22.67604 | 38605 ft | 506 kts | 93° |
| 2026-05-05 12:54 | 51.44914 | -22.50824 | 38606 ft | 506 kts | 93° |
| 2026-05-05 12:55 | 51.45235 | -22.39619 | 38606 ft | 506 kts | 93° |
| 2026-05-05 12:55 | 51.45547 | -22.28412 | 38606 ft | 506 kts | 93° |
| 2026-05-05 12:56 | 51.45847 | -22.17243 | 38607 ft | 506 kts | 93° |
| 2026-05-05 12:56 | 51.46141 | -22.05999 | 38607 ft | 506 kts | 93° |
| 2026-05-05 12:57 | 51.46423 | -21.94789 | 38607 ft | 506 kts | 94° |
| 2026-05-05 12:57 | 51.46696 | -21.83590 | 38607 ft | 506 kts | 94° |
| 2026-05-05 12:58 | 51.46960 | -21.72371 | 38608 ft | 506 kts | 94° |
| 2026-05-05 12:58 | 51.47214 | -21.61141 | 38608 ft | 506 kts | 94° |
| 2026-05-05 12:59 | 51.47459 | -21.49933 | 38608 ft | 506 kts | 94° |
| 2026-05-05 12:59 | 51.47695 | -21.38732 | 38608 ft | 506 kts | 94° |
| 2026-05-05 13:00 | 51.48031 | -21.21961 | 38609 ft | 505 kts | 94° |
| 2026-05-05 13:01 | 51.48449 | -20.99549 | 38609 ft | 505 kts | 94° |
| 2026-05-05 13:01 | 51.48645 | -20.88338 | 38609 ft | 505 kts | 94° |
| 2026-05-05 13:02 | 51.48833 | -20.77155 | 38610 ft | 505 kts | 94° |
| 2026-05-05 13:02 | 51.49014 | -20.65913 | 38610 ft | 505 kts | 94° |
| 2026-05-05 13:03 | 51.49187 | -20.54716 | 38610 ft | 505 kts | 94° |
| 2026-05-05 13:03 | 51.49354 | -20.43544 | 38610 ft | 505 kts | 95° |
| 2026-05-05 13:04 | 51.49516 | -20.32316 | 38610 ft | 505 kts | 95° |
| 2026-05-05 13:04 | 51.49674 | -20.21148 | 38610 ft | 505 kts | 95° |
| 2026-05-05 13:05 | 51.49833 | -20.09944 | 38611 ft | 505 kts | 95° |
| 2026-05-05 13:05 | 51.50015 | -19.98741 | 38611 ft | 505 kts | 94° |
| 2026-05-05 13:06 | 51.50223 | -19.87543 | 38611 ft | 505 kts | 94° |
| 2026-05-05 13:06 | 51.50425 | -19.76293 | 38611 ft | 505 kts | 94° |
| 2026-05-05 13:07 | 51.50616 | -19.65093 | 38611 ft | 505 kts | 94° |
| 2026-05-05 13:07 | 51.50798 | -19.53903 | 38611 ft | 505 kts | 94° |
| 2026-05-05 13:08 | 51.50969 | -19.42683 | 38611 ft | 505 kts | 94° |
| 2026-05-05 13:08 | 51.51129 | -19.31511 | 38611 ft | 505 kts | 95° |
| 2026-05-05 13:09 | 51.51280 | -19.20308 | 38611 ft | 505 kts | 95° |
| 2026-05-05 13:09 | 51.51421 | -19.09101 | 38611 ft | 505 kts | 95° |
| 2026-05-05 13:10 | 51.51551 | -18.97912 | 38611 ft | 505 kts | 95° |
| 2026-05-05 13:10 | 51.51672 | -18.86666 | 38612 ft | 505 kts | 95° |
| 2026-05-05 13:11 | 51.51782 | -18.75509 | 38612 ft | 505 kts | 95° |
| 2026-05-05 13:11 | 51.51882 | -18.64318 | 38612 ft | 505 kts | 95° |
| 2026-05-05 13:12 | 51.51972 | -18.53112 | 38612 ft | 504 kts | 95° |
| 2026-05-05 13:12 | 51.52052 | -18.41890 | 38612 ft | 504 kts | 95° |
| 2026-05-05 13:13 | 51.52122 | -18.30715 | 38612 ft | 504 kts | 95° |
| 2026-05-05 13:13 | 51.52182 | -18.19514 | 38612 ft | 504 kts | 95° |
| 2026-05-05 13:14 | 51.52232 | -18.08302 | 38612 ft | 504 kts | 96° |
| 2026-05-05 13:14 | 51.52272 | -17.97159 | 38612 ft | 504 kts | 96° |
| 2026-05-05 13:15 | 51.52302 | -17.85972 | 38612 ft | 504 kts | 96° |
| 2026-05-05 13:15 | 51.52323 | -17.74742 | 38612 ft | 504 kts | 96° |
| 2026-05-05 13:16 | 51.52333 | -17.63598 | 38612 ft | 504 kts | 96° |
| 2026-05-05 13:16 | 51.52334 | -17.52412 | 38612 ft | 504 kts | 96° |
| 2026-05-05 13:17 | 51.52325 | -17.41194 | 38612 ft | 504 kts | 96° |
| 2026-05-05 13:17 | 51.52306 | -17.30058 | 38612 ft | 504 kts | 96° |
| 2026-05-05 13:18 | 51.52278 | -17.18880 | 38612 ft | 504 kts | 96° |
| 2026-05-05 13:18 | 51.52240 | -17.07664 | 38612 ft | 503 kts | 96° |
| 2026-05-05 13:19 | 51.52193 | -16.96530 | 38612 ft | 503 kts | 96° |
| 2026-05-05 13:19 | 51.52136 | -16.85349 | 38612 ft | 503 kts | 96° |
| 2026-05-05 13:20 | 51.52070 | -16.74215 | 38612 ft | 503 kts | 96° |
| 2026-05-05 13:20 | 51.51994 | -16.62976 | 38612 ft | 503 kts | 97° |
| 2026-05-05 13:21 | 51.51909 | -16.51852 | 38612 ft | 503 kts | 97° |
| 2026-05-05 13:21 | 51.51815 | -16.40654 | 38612 ft | 503 kts | 97° |
| 2026-05-05 13:22 | 51.51712 | -16.29491 | 38612 ft | 503 kts | 97° |
| 2026-05-05 13:22 | 51.51601 | -16.18365 | 38611 ft | 503 kts | 97° |
| 2026-05-05 13:23 | 51.51481 | -16.07203 | 38611 ft | 503 kts | 97° |
| 2026-05-05 13:23 | 51.51352 | -15.96034 | 38611 ft | 503 kts | 97° |
| 2026-05-05 13:24 | 51.51215 | -15.84885 | 38611 ft | 503 kts | 97° |
| 2026-05-05 13:24 | 51.51070 | -15.73735 | 38611 ft | 503 kts | 97° |
| 2026-05-05 13:25 | 51.50918 | -15.62588 | 38611 ft | 503 kts | 97° |
| 2026-05-05 13:25 | 51.50759 | -15.51432 | 38611 ft | 503 kts | 97° |
| 2026-05-05 13:26 | 51.50593 | -15.40279 | 38611 ft | 503 kts | 97° |
| 2026-05-05 13:26 | 51.50423 | -15.29126 | 38611 ft | 503 kts | 97° |
| 2026-05-05 13:27 | 51.50250 | -15.17969 | 38611 ft | 503 kts | 97° |
| 2026-05-05 13:27 | 51.50081 | -15.06845 | 38611 ft | 503 kts | 97° |
| 2026-05-05 13:28 | 51.50020 | -14.95694 | 38611 ft | 504 kts | 96° |
| 2026-05-05 13:28 | 51.50031 | -14.84549 | 38611 ft | 504 kts | 96° |
| 2026-05-05 13:29 | 51.50040 | -14.73320 | 38610 ft | 504 kts | 96° |
| 2026-05-05 13:29 | 51.50044 | -14.62157 | 38610 ft | 504 kts | 96° |
| 2026-05-05 13:30 | 51.50040 | -14.50977 | 38610 ft | 504 kts | 96° |
| 2026-05-05 13:30 | 51.50030 | -14.39794 | 38610 ft | 504 kts | 96° |
| 2026-05-05 13:31 | 51.50015 | -14.28650 | 38610 ft | 504 kts | 96° |
| 2026-05-05 13:31 | 51.49998 | -14.17401 | 38610 ft | 504 kts | 96° |
| 2026-05-05 13:32 | 51.49985 | -14.06275 | 38609 ft | 504 kts | 96° |
| 2026-05-05 13:32 | 51.50591 | -13.95040 | 38610 ft | 511 kts | 86° |
| 2026-05-05 13:33 | 51.51685 | -13.83841 | 38609 ft | 512 kts | 86° |
| 2026-05-05 13:33 | 51.52817 | -13.72596 | 38609 ft | 512 kts | 86° |
| 2026-05-05 13:34 | 51.53942 | -13.61357 | 38608 ft | 512 kts | 86° |
| 2026-05-05 13:34 | 51.55054 | -13.50129 | 38608 ft | 512 kts | 86° |
| 2026-05-05 13:35 | 51.56153 | -13.38932 | 38607 ft | 512 kts | 86° |
| 2026-05-05 13:35 | 51.57243 | -13.27709 | 38607 ft | 512 kts | 86° |
| 2026-05-05 13:36 | 51.58324 | -13.16463 | 38607 ft | 512 kts | 86° |
| 2026-05-05 13:36 | 51.59397 | -13.05195 | 38606 ft | 512 kts | 86° |
| 2026-05-05 13:37 | 51.60452 | -12.93998 | 38606 ft | 511 kts | 86° |
| 2026-05-05 13:37 | 51.61499 | -12.82772 | 38606 ft | 511 kts | 86° |
| 2026-05-05 13:38 | 51.62539 | -12.71496 | 38605 ft | 511 kts | 87° |
| 2026-05-05 13:38 | 51.63569 | -12.60226 | 38605 ft | 511 kts | 87° |
| 2026-05-05 13:39 | 51.64587 | -12.48955 | 38605 ft | 511 kts | 87° |
| 2026-05-05 13:39 | 51.65593 | -12.37696 | 38604 ft | 511 kts | 87° |
| 2026-05-05 13:40 | 51.66591 | -12.26412 | 38604 ft | 511 kts | 87° |
| 2026-05-05 13:40 | 51.67573 | -12.15181 | 38604 ft | 511 kts | 87° |
| 2026-05-05 13:41 | 51.68549 | -12.03903 | 38603 ft | 511 kts | 87° |
| 2026-05-05 13:41 | 51.69516 | -11.92593 | 38603 ft | 511 kts | 87° |
| 2026-05-05 13:42 | 51.70469 | -11.81318 | 38602 ft | 511 kts | 88° |
| 2026-05-05 13:42 | 51.71410 | -11.70064 | 38602 ft | 511 kts | 88° |
| 2026-05-05 13:43 | 51.72345 | -11.58761 | 38602 ft | 511 kts | 88° |
| 2026-05-05 13:43 | 51.73270 | -11.47442 | 38601 ft | 511 kts | 88° |
| 2026-05-05 13:44 | 51.74179 | -11.36176 | 38601 ft | 511 kts | 88° |
| 2026-05-05 13:44 | 51.75077 | -11.24920 | 38601 ft | 510 kts | 88° |
| 2026-05-05 13:45 | 51.75968 | -11.13620 | 38600 ft | 510 kts | 88° |
| 2026-05-05 13:45 | 51.76851 | -11.02283 | 38600 ft | 510 kts | 88° |
| 2026-05-05 13:46 | 51.77712 | -10.91094 | 38600 ft | 510 kts | 88° |
| 2026-05-05 13:46 | 51.78573 | -10.79776 | 38599 ft | 510 kts | 88° |
| 2026-05-05 13:47 | 51.79425 | -10.68418 | 38599 ft | 510 kts | 88° |
| 2026-05-05 13:47 | 51.80257 | -10.57199 | 38599 ft | 510 kts | 89° |
| 2026-05-05 13:48 | 51.81087 | -10.45852 | 38598 ft | 510 kts | 89° |
| 2026-05-05 13:48 | 51.81906 | -10.34514 | 38598 ft | 510 kts | 89° |
| 2026-05-05 13:49 | 51.82715 | -10.23171 | 38598 ft | 510 kts | 89° |
| 2026-05-05 13:49 | 51.83509 | -10.11886 | 38597 ft | 510 kts | 89° |
| 2026-05-05 13:50 | 51.84298 | -10.00525 | 38597 ft | 510 kts | 89° |
| 2026-05-05 13:50 | 51.85070 | -9.89245 | 38597 ft | 510 kts | 89° |
| 2026-05-05 13:51 | 51.85838 | -9.77883 | 38596 ft | 510 kts | 89° |
| 2026-05-05 13:51 | 51.86590 | -9.66601 | 38596 ft | 510 kts | 89° |
| 2026-05-05 13:52 | 51.87335 | -9.55257 | 38596 ft | 509 kts | 89° |
| 2026-05-05 13:52 | 51.88065 | -9.43986 | 38595 ft | 509 kts | 89° |
| 2026-05-05 13:53 | 51.88794 | -9.32581 | 38595 ft | 509 kts | 90° |
| 2026-05-05 13:53 | 51.89506 | -9.21262 | 38595 ft | 509 kts | 90° |
| 2026-05-05 13:54 | 51.90210 | -9.09917 | 38594 ft | 509 kts | 90° |
| 2026-05-05 13:54 | 51.90555 | -9.04217 | 38654 ft | 506 kts | 78° |
| 2026-05-05 13:54 | 51.90893 | -8.98623 | 38761 ft | 507 kts | 78° |
| 2026-05-05 13:55 | 51.91573 | -8.87322 | 38798 ft | 508 kts | 78° |
| 2026-05-05 13:55 | 51.92245 | -8.76005 | 38801 ft | 508 kts | 78° |
| 2026-05-05 13:56 | 51.92907 | -8.64677 | 38802 ft | 508 kts | 78° |
| 2026-05-05 13:56 | 51.93560 | -8.53321 | 38803 ft | 508 kts | 78° |
| 2026-05-05 13:57 | 51.94199 | -8.42055 | 38804 ft | 508 kts | 78° |
| 2026-05-05 13:57 | 51.94832 | -8.30701 | 38803 ft | 508 kts | 78° |
| 2026-05-05 13:58 | 51.95454 | -8.19371 | 38802 ft | 508 kts | 79° |
| 2026-05-05 13:58 | 51.96066 | -8.08047 | 38801 ft | 508 kts | 79° |
| 2026-05-05 13:59 | 51.96967 | -7.91013 | 38799 ft | 508 kts | 80° |
| 2026-05-05 14:00 | 51.97846 | -7.73974 | 38796 ft | 508 kts | 81° |
| 2026-05-05 14:00 | 51.98414 | -7.62703 | 38745 ft | 502 kts | 81° |
| 2026-05-05 14:01 | 51.98879 | -7.53364 | 38736 ft | 503 kts | 81° |
| 2026-05-05 14:01 | 51.99518 | -7.40300 | 38726 ft | 503 kts | 81° |
| 2026-05-05 14:02 | 52.00064 | -7.28956 | 38719 ft | 504 kts | 81° |
| 2026-05-05 14:02 | 52.00596 | -7.17707 | 38713 ft | 505 kts | 81° |
| 2026-05-05 14:03 | 52.01124 | -7.06361 | 38708 ft | 506 kts | 81° |
| 2026-05-05 14:03 | 52.01641 | -6.95040 | 38706 ft | 505 kts | 81° |
| 2026-05-05 14:04 | 52.02148 | -6.83756 | 38707 ft | 504 kts | 81° |
| 2026-05-05 14:04 | 52.02646 | -6.72493 | 38709 ft | 503 kts | 82° |
| 2026-05-05 14:05 | 52.03136 | -6.61249 | 38712 ft | 502 kts | 82° |
| 2026-05-05 14:05 | 52.03620 | -6.50010 | 38714 ft | 501 kts | 82° |
| 2026-05-05 14:06 | 52.04096 | -6.38798 | 38716 ft | 500 kts | 82° |
| 2026-05-05 14:06 | 52.04570 | -6.27559 | 38717 ft | 499 kts | 82° |
| 2026-05-05 14:07 | 52.05035 | -6.16377 | 38717 ft | 499 kts | 84° |
| 2026-05-05 14:07 | 52.04360 | -6.05186 | 38720 ft | 505 kts | 99° |
| 2026-05-05 14:08 | 52.02756 | -5.94209 | 38720 ft | 504 kts | 102° |
| 2026-05-05 14:08 | 52.01037 | -5.83242 | 38721 ft | 503 kts | 102° |
| 2026-05-05 14:09 | 51.99308 | -5.72323 | 38721 ft | 503 kts | 102° |
| 2026-05-05 14:09 | 51.97575 | -5.61425 | 38722 ft | 502 kts | 102° |
| 2026-05-05 14:10 | 51.95831 | -5.50494 | 38722 ft | 501 kts | 103° |
| 2026-05-05 14:10 | 51.94167 | -5.40080 | 38722 ft | 500 kts | 103° |
| 2026-05-05 14:11 | 51.92437 | -5.29230 | 38723 ft | 500 kts | 102° |
| 2026-05-05 14:11 | 51.90955 | -5.18339 | 38723 ft | 498 kts | 99° |
| 2026-05-05 14:12 | 51.89637 | -5.07368 | 38711 ft | 490 kts | 94° |
| 2026-05-05 14:12 | 51.88996 | -5.02187 | 38928 ft | 469 kts | 94° |
| 2026-05-05 14:12 | 51.88373 | -4.97084 | 38802 ft | 459 kts | 93° |
| 2026-05-05 14:13 | 51.87766 | -4.92075 | 38714 ft | 448 kts | 93° |
| 2026-05-05 14:13 | 51.87177 | -4.87223 | 38694 ft | 438 kts | 93° |
| 2026-05-05 14:13 | 51.86012 | -4.77570 | 38693 ft | 439 kts | 93° |
| 2026-05-05 14:14 | 51.84851 | -4.67971 | 38693 ft | 439 kts | 93° |
| 2026-05-05 14:14 | 51.83678 | -4.58338 | 38693 ft | 439 kts | 93° |
| 2026-05-05 14:15 | 51.82497 | -4.48686 | 38693 ft | 440 kts | 93° |
| 2026-05-05 14:15 | 51.81312 | -4.39065 | 38693 ft | 440 kts | 93° |
| 2026-05-05 14:16 | 51.80117 | -4.29409 | 38693 ft | 440 kts | 93° |
| 2026-05-05 14:16 | 51.78924 | -4.19821 | 38693 ft | 440 kts | 93° |
| 2026-05-05 14:17 | 51.77720 | -4.10198 | 38693 ft | 440 kts | 94° |
| 2026-05-05 14:17 | 51.76510 | -4.00568 | 38693 ft | 440 kts | 94° |
| 2026-05-05 14:18 | 51.75295 | -3.90927 | 38693 ft | 440 kts | 94° |
| 2026-05-05 14:18 | 51.74083 | -3.81350 | 38693 ft | 440 kts | 94° |
| 2026-05-05 14:19 | 51.72867 | -3.71742 | 38693 ft | 440 kts | 94° |
| 2026-05-05 14:19 | 51.71648 | -3.62093 | 38693 ft | 440 kts | 94° |
| 2026-05-05 14:20 | 51.70782 | -3.52506 | 38693 ft | 434 kts | 88° |
| 2026-05-05 14:20 | 51.70188 | -3.42880 | 38693 ft | 434 kts | 88° |
| 2026-05-05 14:21 | 51.69606 | -3.33269 | 38693 ft | 434 kts | 88° |
| 2026-05-05 14:21 | 51.69017 | -3.23649 | 38693 ft | 435 kts | 88° |
| 2026-05-05 14:22 | 51.68417 | -3.13971 | 38693 ft | 435 kts | 88° |
| 2026-05-05 14:22 | 51.67815 | -3.04372 | 38693 ft | 435 kts | 88° |
| 2026-05-05 14:23 | 51.67205 | -2.94754 | 38794 ft | 437 kts | 85° |
| 2026-05-05 14:23 | 51.66895 | -2.89884 | 38914 ft | 439 kts | 85° |
| 2026-05-05 14:23 | 51.66580 | -2.84963 | 38957 ft | 443 kts | 85° |
| 2026-05-05 14:24 | 51.65946 | -2.75078 | 38970 ft | 453 kts | 86° |
| 2026-05-05 14:24 | 51.65286 | -2.64904 | 38971 ft | 462 kts | 86° |
| 2026-05-05 14:25 | 51.64607 | -2.54561 | 38970 ft | 471 kts | 86° |
| 2026-05-05 14:25 | 51.63908 | -2.44074 | 38969 ft | 479 kts | 86° |
| 2026-05-05 14:26 | 51.63186 | -2.33418 | 38920 ft | 481 kts | 87° |
| 2026-05-05 14:26 | 51.62457 | -2.22812 | 38910 ft | 481 kts | 87° |
| 2026-05-05 14:27 | 51.61725 | -2.12254 | 38896 ft | 481 kts | 87° |
| 2026-05-05 14:27 | 51.60978 | -2.01569 | 38891 ft | 481 kts | 87° |
| 2026-05-05 14:28 | 51.60229 | -1.90915 | 38890 ft | 481 kts | 87° |
| 2026-05-05 14:28 | 51.59483 | -1.80319 | 38890 ft | 481 kts | 87° |
| 2026-05-05 14:29 | 51.58694 | -1.69692 | 38887 ft | 485 kts | 92° |
| 2026-05-05 14:29 | 51.56924 | -1.59158 | 38890 ft | 495 kts | 99° |
| 2026-05-05 14:30 | 51.54791 | -1.48682 | 38935 ft | 499 kts | 101° |
| 2026-05-05 14:30 | 51.52584 | -1.38066 | 38954 ft | 505 kts | 101° |
| 2026-05-05 14:31 | 51.50416 | -1.27915 | 39018 ft | 498 kts | 101° |
| 2026-05-05 14:31 | 51.48577 | -1.17345 | 39037 ft | 491 kts | 95° |
| 2026-05-05 14:32 | 51.47212 | -1.06710 | 39047 ft | 488 kts | 93° |
| 2026-05-05 14:32 | 51.45890 | -0.96134 | 39046 ft | 489 kts | 93° |
| 2026-05-05 14:33 | 51.44544 | -0.85456 | 39032 ft | 488 kts | 94° |
| 2026-05-05 14:33 | 51.43208 | -0.74918 | 39021 ft | 488 kts | 94° |
| 2026-05-05 14:34 | 51.41857 | -0.64311 | 39029 ft | 488 kts | 94° |
| 2026-05-05 14:34 | 51.40502 | -0.53723 | 39051 ft | 488 kts | 94° |
| 2026-05-05 14:35 | 51.39140 | -0.43111 | 39061 ft | 488 kts | 94° |
| 2026-05-05 14:35 | 51.37780 | -0.32528 | 39056 ft | 488 kts | 94° |
| 2026-05-05 14:36 | 51.36434 | -0.22014 | 39046 ft | 488 kts | 94° |
| 2026-05-05 14:36 | 51.35041 | -0.11412 | 39061 ft | 487 kts | 95° |
| 2026-05-05 14:37 | 51.33781 | -0.01900 | 39072 ft | 489 kts | 94° |
| 2026-05-05 14:37 | 51.32619 | 0.08701 | 39081 ft | 486 kts | 91° |
| 2026-05-05 14:38 | 51.31599 | 0.19198 | 39066 ft | 484 kts | 91° |
| 2026-05-05 14:38 | 51.30578 | 0.29744 | 39055 ft | 484 kts | 91° |
| 2026-05-05 14:39 | 51.29544 | 0.40352 | 39048 ft | 484 kts | 91° |
| 2026-05-05 14:39 | 51.28507 | 0.50902 | 39043 ft | 484 kts | 92° |
| 2026-05-05 14:40 | 51.27459 | 0.61473 | 39051 ft | 484 kts | 92° |
| 2026-05-05 14:40 | 51.26410 | 0.71973 | 39050 ft | 484 kts | 92° |
| 2026-05-05 14:41 | 51.25343 | 0.82556 | 39054 ft | 479 kts | 91° |
| 2026-05-05 14:41 | 51.24819 | 0.87666 | 39021 ft | 467 kts | 91° |
| 2026-05-05 14:41 | 51.24303 | 0.92673 | 39011 ft | 454 kts | 91° |
| 2026-05-05 14:42 | 51.23300 | 1.02384 | 39011 ft | 445 kts | 91° |
| 2026-05-05 14:42 | 51.22304 | 1.12099 | 39009 ft | 446 kts | 91° |
| 2026-05-05 14:43 | 51.21306 | 1.21768 | 39008 ft | 446 kts | 91° |
| 2026-05-05 14:43 | 51.20294 | 1.31516 | 39008 ft | 447 kts | 91° |
| 2026-05-05 14:44 | 51.19277 | 1.41255 | 39018 ft | 448 kts | 91° |
| 2026-05-05 14:44 | 51.18251 | 1.51017 | 39025 ft | 449 kts | 91° |
| 2026-05-05 14:45 | 51.17220 | 1.60784 | 39026 ft | 450 kts | 91° |
| 2026-05-05 14:45 | 51.16192 | 1.70479 | 39027 ft | 451 kts | 91° |
| 2026-05-05 14:46 | 51.15148 | 1.80300 | 39025 ft | 451 kts | 91° |
| 2026-05-05 14:46 | 51.14115 | 1.89990 | 39008 ft | 446 kts | 91° |
| 2026-05-05 14:47 | 51.13169 | 1.99692 | 39007 ft | 444 kts | 88° |
| 2026-05-05 14:47 | 51.12579 | 2.09401 | 39008 ft | 443 kts | 86° |
| 2026-05-05 14:48 | 51.12036 | 2.19142 | 39009 ft | 443 kts | 86° |
| 2026-05-05 14:48 | 51.11498 | 2.28783 | 39010 ft | 444 kts | 86° |
| 2026-05-05 14:49 | 51.10948 | 2.38565 | 39009 ft | 444 kts | 86° |
| 2026-05-05 14:49 | 51.10400 | 2.48290 | 39000 ft | 445 kts | 86° |
| 2026-05-05 14:50 | 51.09854 | 2.58021 | 38999 ft | 445 kts | 86° |
| 2026-05-05 14:50 | 51.08861 | 2.67832 | 39000 ft | 456 kts | 96° |
| 2026-05-05 14:51 | 51.07183 | 2.77455 | 38998 ft | 459 kts | 97° |
| 2026-05-05 14:51 | 51.05409 | 2.87191 | 38999 ft | 459 kts | 97° |
| 2026-05-05 14:52 | 51.03639 | 2.96836 | 38985 ft | 456 kts | 97° |
| 2026-05-05 14:52 | 51.01874 | 3.06421 | 38972 ft | 456 kts | 97° |
| 2026-05-05 14:53 | 51.00094 | 3.16056 | 38971 ft | 457 kts | 97° |
| 2026-05-05 14:53 | 50.98308 | 3.25696 | 38971 ft | 457 kts | 97° |
| 2026-05-05 14:54 | 50.96522 | 3.35306 | 38971 ft | 457 kts | 98° |
| 2026-05-05 14:54 | 50.94730 | 3.44938 | 38956 ft | 458 kts | 98° |
| 2026-05-05 14:55 | 50.92945 | 3.54535 | 38804 ft | 458 kts | 97° |
| 2026-05-05 14:55 | 50.91136 | 3.64195 | 38791 ft | 459 kts | 97° |
| 2026-05-05 14:56 | 50.89277 | 3.73815 | 38793 ft | 459 kts | 98° |
| 2026-05-05 14:56 | 50.87410 | 3.83407 | 38797 ft | 460 kts | 98° |
| 2026-05-05 14:57 | 50.85528 | 3.93039 | 38800 ft | 460 kts | 98° |
| 2026-05-05 14:57 | 50.83642 | 4.02658 | 38803 ft | 460 kts | 98° |
| 2026-05-05 14:58 | 50.81746 | 4.12308 | 38651 ft | 466 kts | 98° |
| 2026-05-05 14:58 | 50.79830 | 4.22021 | 38581 ft | 466 kts | 98° |
| 2026-05-05 14:59 | 50.77904 | 4.31753 | 38548 ft | 467 kts | 98° |
| 2026-05-05 14:59 | 50.75964 | 4.41540 | 38501 ft | 468 kts | 98° |
| 2026-05-05 15:00 | 50.74355 | 4.49650 | 38472 ft | 468 kts | 98° |
| 2026-05-05 15:00 | 50.72118 | 4.61022 | 38462 ft | 470 kts | 98° |
| 2026-05-05 15:01 | 50.70206 | 4.70828 | 38463 ft | 470 kts | 98° |
| 2026-05-05 15:01 | 50.68304 | 4.80587 | 38466 ft | 469 kts | 98° |
| 2026-05-05 15:02 | 50.66398 | 4.90330 | 38469 ft | 469 kts | 98° |
| 2026-05-05 15:02 | 50.64401 | 5.00092 | 38473 ft | 469 kts | 99° |
| 2026-05-05 15:03 | 50.63403 | 5.04924 | 38329 ft | 469 kts | 99° |
| 2026-05-05 15:03 | 50.62396 | 5.09784 | 37892 ft | 467 kts | 99° |
| 2026-05-05 15:03 | 50.61392 | 5.14620 | 37408 ft | 466 kts | 99° |
| 2026-05-05 15:03 | 50.60396 | 5.19415 | 36927 ft | 465 kts | 99° |
| 2026-05-05 15:04 | 50.59399 | 5.24210 | 36415 ft | 465 kts | 99° |
| 2026-05-05 15:04 | 50.58390 | 5.29060 | 35890 ft | 464 kts | 100° |
| 2026-05-05 15:04 | 50.57394 | 5.33843 | 35402 ft | 463 kts | 100° |
| 2026-05-05 15:04 | 50.56399 | 5.38607 | 34993 ft | 460 kts | 100° |
| 2026-05-05 15:05 | 50.54428 | 5.48043 | 34222 ft | 453 kts | 100° |
| 2026-05-05 15:05 | 50.53468 | 5.52647 | 33818 ft | 450 kts | 101° |
| 2026-05-05 15:05 | 50.52500 | 5.57311 | 33403 ft | 447 kts | 101° |
| 2026-05-05 15:06 | 50.51573 | 5.61930 | 32991 ft | 443 kts | 99° |
| 2026-05-05 15:06 | 50.50697 | 5.66509 | 32584 ft | 440 kts | 99° |
| 2026-05-05 15:06 | 50.49829 | 5.71098 | 32176 ft | 437 kts | 99° |
| 2026-05-05 15:06 | 50.48973 | 5.75629 | 31767 ft | 434 kts | 100° |
| 2026-05-05 15:07 | 50.48122 | 5.80132 | 31311 ft | 433 kts | 100° |
| 2026-05-05 15:07 | 50.47274 | 5.84617 | 30827 ft | 432 kts | 101° |
| 2026-05-05 15:07 | 50.46424 | 5.89108 | 30338 ft | 431 kts | 101° |
| 2026-05-05 15:07 | 50.45571 | 5.93610 | 29857 ft | 430 kts | 101° |
| 2026-05-05 15:08 | 50.44729 | 5.98045 | 29386 ft | 428 kts | 101° |
| 2026-05-05 15:08 | 50.43888 | 6.02470 | 28915 ft | 427 kts | 101° |
| 2026-05-05 15:08 | 50.43040 | 6.06928 | 28438 ft | 426 kts | 101° |
| 2026-05-05 15:08 | 50.42196 | 6.11359 | 27963 ft | 424 kts | 101° |
| 2026-05-05 15:09 | 50.41360 | 6.15752 | 27490 ft | 422 kts | 102° |
| 2026-05-05 15:09 | 50.40529 | 6.20115 | 27018 ft | 421 kts | 102° |
| 2026-05-05 15:09 | 50.39698 | 6.24483 | 26543 ft | 419 kts | 102° |
| 2026-05-05 15:09 | 50.38885 | 6.28768 | 26075 ft | 418 kts | 102° |
| 2026-05-05 15:10 | 50.38052 | 6.33159 | 25594 ft | 416 kts | 103° |
| 2026-05-05 15:10 | 50.37218 | 6.37496 | 25117 ft | 415 kts | 103° |
| 2026-05-05 15:10 | 50.36502 | 6.41821 | 24642 ft | 410 kts | 96° |
| 2026-05-05 15:10 | 50.36097 | 6.46168 | 24173 ft | 406 kts | 93° |
| 2026-05-05 15:11 | 50.35797 | 6.50566 | 23696 ft | 404 kts | 92° |
| 2026-05-05 15:11 | 50.35527 | 6.54870 | 23227 ft | 402 kts | 92° |
| 2026-05-05 15:11 | 50.35257 | 6.59236 | 22748 ft | 401 kts | 93° |
| 2026-05-05 15:11 | 50.34995 | 6.63512 | 22278 ft | 399 kts | 94° |
| 2026-05-05 15:12 | 50.34731 | 6.67837 | 21800 ft | 397 kts | 94° |
| 2026-05-05 15:12 | 50.34477 | 6.72052 | 21333 ft | 396 kts | 94° |
| 2026-05-05 15:12 | 50.34213 | 6.76324 | 21061 ft | 388 kts | 94° |
| 2026-05-05 15:12 | 50.33954 | 6.80478 | 20929 ft | 377 kts | 94° |
| 2026-05-05 15:13 | 50.33631 | 6.84467 | 20793 ft | 367 kts | 102° |
| 2026-05-05 15:13 | 50.32849 | 6.88190 | 20475 ft | 363 kts | 110° |
| 2026-05-05 15:13 | 50.31876 | 6.91806 | 20077 ft | 362 kts | 112° |
| 2026-05-05 15:13 | 50.30864 | 6.95381 | 19677 ft | 360 kts | 112° |
| 2026-05-05 15:14 | 50.29845 | 6.98923 | 19279 ft | 358 kts | 113° |
| 2026-05-05 15:14 | 50.28803 | 7.02429 | 18880 ft | 357 kts | 114° |
| 2026-05-05 15:14 | 50.27747 | 7.05942 | 18477 ft | 355 kts | 114° |
| 2026-05-05 15:14 | 50.26685 | 7.09468 | 18160 ft | 364 kts | 114° |
| 2026-05-05 15:15 | 50.25614 | 7.13023 | 17833 ft | 359 kts | 114° |
| 2026-05-05 15:15 | 50.24568 | 7.16489 | 17510 ft | 355 kts | 114° |
| 2026-05-05 15:15 | 50.23518 | 7.19970 | 17181 ft | 351 kts | 114° |
| 2026-05-05 15:15 | 50.22497 | 7.23356 | 16858 ft | 347 kts | 114° |
| 2026-05-05 15:16 | 50.21479 | 7.26779 | 16530 ft | 345 kts | 112° |
| 2026-05-05 15:16 | 50.20649 | 7.29944 | 16233 ft | 344 kts | 111° |
| 2026-05-05 15:16 | 50.19680 | 7.33292 | 15909 ft | 342 kts | 110° |
| 2026-05-05 15:16 | 50.19177 | 7.36909 | 15568 ft | 337 kts | 91° |
| 2026-05-05 15:17 | 50.19197 | 7.40439 | 15187 ft | 334 kts | 86° |
| 2026-05-05 15:17 | 50.19312 | 7.44146 | 14859 ft | 330 kts | 85° |
| 2026-05-05 15:17 | 50.19436 | 7.47701 | 14605 ft | 334 kts | 89° |
| 2026-05-05 15:17 | 50.19559 | 7.51268 | 14354 ft | 329 kts | 89° |
| 2026-05-05 15:18 | 50.19678 | 7.54744 | 14105 ft | 324 kts | 89° |
| 2026-05-05 15:18 | 50.19798 | 7.58271 | 13849 ft | 319 kts | 89° |
| 2026-05-05 15:18 | 50.19913 | 7.61677 | 13600 ft | 315 kts | 89° |
| 2026-05-05 15:18 | 50.20021 | 7.64921 | 13358 ft | 311 kts | 89° |
| 2026-05-05 15:19 | 50.20131 | 7.68258 | 13109 ft | 310 kts | 89° |
| 2026-05-05 15:19 | 50.20241 | 7.71611 | 12859 ft | 310 kts | 89° |
| 2026-05-05 15:19 | 50.20349 | 7.74935 | 12610 ft | 308 kts | 89° |
| 2026-05-05 15:19 | 50.20430 | 7.77431 | 12423 ft | 306 kts | 88° |
| 2026-05-05 15:20 | 50.20460 | 7.78349 | 12353 ft | 305 kts | 88° |
| 2026-05-05 15:20 | 50.20564 | 7.81600 | 12103 ft | 302 kts | 88° |
| 2026-05-05 15:20 | 50.20667 | 7.84842 | 11844 ft | 299 kts | 88° |
| 2026-05-05 15:20 | 50.20769 | 7.88084 | 11593 ft | 299 kts | 88° |
| 2026-05-05 15:21 | 50.20870 | 7.91315 | 11343 ft | 299 kts | 88° |
| 2026-05-05 15:21 | 50.20970 | 7.94520 | 11095 ft | 298 kts | 88° |
| 2026-05-05 15:21 | 50.21068 | 7.97710 | 10846 ft | 296 kts | 88° |
| 2026-05-05 15:21 | 50.21163 | 8.00801 | 10604 ft | 295 kts | 88° |
| 2026-05-05 15:22 | 50.21260 | 8.03994 | 10354 ft | 294 kts | 88° |
| 2026-05-05 15:22 | 50.21357 | 8.07187 | 10102 ft | 293 kts | 87° |
| 2026-05-05 15:22 | 50.21445 | 8.10120 | 9870 ft | 292 kts | 87° |
| 2026-05-05 15:22 | 50.21539 | 8.13285 | 9618 ft | 291 kts | 87° |
| 2026-05-05 15:23 | 50.21625 | 8.16192 | 9386 ft | 290 kts | 87° |
| 2026-05-05 15:23 | 50.21717 | 8.19328 | 9135 ft | 289 kts | 87° |
| 2026-05-05 15:23 | 50.21808 | 8.22434 | 8886 ft | 287 kts | 87° |
| 2026-05-05 15:23 | 50.21897 | 8.25525 | 8637 ft | 286 kts | 87° |
| 2026-05-05 15:24 | 50.21987 | 8.28624 | 8386 ft | 285 kts | 87° |
| 2026-05-05 15:24 | 50.22074 | 8.31669 | 8138 ft | 284 kts | 87° |
| 2026-05-05 15:24 | 50.22161 | 8.34737 | 7888 ft | 283 kts | 87° |
| 2026-05-05 15:24 | 50.22235 | 8.37387 | 7672 ft | 282 kts | 87° |
| 2026-05-05 15:25 | 50.22320 | 8.40408 | 7424 ft | 281 kts | 87° |
| 2026-05-05 15:25 | 50.22396 | 8.43456 | 7172 ft | 280 kts | 88° |
| 2026-05-05 15:25 | 50.22466 | 8.46486 | 6949 ft | 278 kts | 88° |
| 2026-05-05 15:25 | 50.22520 | 8.48877 | 6846 ft | 278 kts | 88° |
| 2026-05-05 15:26 | 50.22586 | 8.51922 | 6721 ft | 279 kts | 88° |
| 2026-05-05 15:26 | 50.22646 | 8.54918 | 6597 ft | 278 kts | 88° |
| 2026-05-05 15:26 | 50.22705 | 8.57924 | 6472 ft | 278 kts | 88° |
| 2026-05-05 15:26 | 50.22764 | 8.60907 | 6347 ft | 277 kts | 88° |
| 2026-05-05 15:27 | 50.22824 | 8.63912 | 6222 ft | 276 kts | 88° |
| 2026-05-05 15:27 | 50.22882 | 8.66858 | 5956 ft | 273 kts | 88° |
| 2026-05-05 15:27 | 50.22942 | 8.69811 | 5732 ft | 270 kts | 88° |
| 2026-05-05 15:27 | 50.22999 | 8.72700 | 5527 ft | 263 kts | 88° |
| 2026-05-05 15:28 | 50.23055 | 8.75486 | 5326 ft | 257 kts | 88° |
| 2026-05-05 15:28 | 50.23099 | 8.77673 | 5164 ft | 253 kts | 88° |
| 2026-05-05 15:28 | 50.23153 | 8.80366 | 5017 ft | 245 kts | 88° |
| 2026-05-05 15:28 | 50.23205 | 8.82986 | 4885 ft | 238 kts | 89° |
| 2026-05-05 15:29 | 50.22873 | 8.85458 | 4752 ft | 239 kts | 119° |
| 2026-05-05 15:29 | 50.21748 | 8.87317 | 4627 ft | 240 kts | 151° |
| 2026-05-05 15:29 | 50.20520 | 8.88135 | 4532 ft | 237 kts | 163° |
| 2026-05-05 15:29 | 50.19115 | 8.88867 | 4419 ft | 236 kts | 165° |
| 2026-05-05 15:30 | 50.18413 | 8.89219 | 4362 ft | 236 kts | 165° |
| 2026-05-05 15:30 | 50.17311 | 8.89769 | 4274 ft | 235 kts | 165° |
| 2026-05-05 15:30 | 50.15708 | 8.90105 | 4140 ft | 230 kts | 192° |
| 2026-05-05 15:30 | 50.14505 | 8.89370 | 4056 ft | 226 kts | 217° |
| 2026-05-05 15:31 | 50.13589 | 8.88204 | 4036 ft | 226 kts | 223° |
| 2026-05-05 15:31 | 50.12443 | 8.86541 | 3968 ft | 225 kts | 224° |
| 2026-05-05 15:31 | 50.11324 | 8.84886 | 3835 ft | 218 kts | 225° |
| 2026-05-05 15:31 | 50.10255 | 8.83304 | 3621 ft | 211 kts | 225° |
| 2026-05-05 15:32 | 50.09513 | 8.81796 | 3409 ft | 210 kts | 243° |
| 2026-05-05 15:32 | 50.08986 | 8.79682 | 3224 ft | 211 kts | 251° |
| 2026-05-05 15:32 | 50.08507 | 8.77529 | 2986 ft | 210 kts | 250° |
| 2026-05-05 15:32 | 50.08014 | 8.75457 | 2707 ft | 200 kts | 249° |
| 2026-05-05 15:33 | 50.07546 | 8.73494 | 2435 ft | 187 kts | 250° |
| 2026-05-05 15:33 | 50.07182 | 8.71962 | 2236 ft | 173 kts | 250° |
| 2026-05-05 15:33 | 50.06769 | 8.70225 | 1993 ft | 154 kts | 250° |
| 2026-05-05 15:33 | 50.06422 | 8.68766 | 1790 ft | 139 kts | 250° |
| 2026-05-05 15:34 | 50.06199 | 8.67296 | 1577 ft | 140 kts | 263° |
| 2026-05-05 15:34 | 50.06080 | 8.65812 | 1359 ft | 139 kts | 259° |
| 2026-05-05 15:34 | 50.05869 | 8.64347 | 1186 ft | 139 kts | 254° |
| 2026-05-05 15:34 | 50.05538 | 8.62926 | 1022 ft | 139 kts | 248° |
| 2026-05-05 15:35 | 50.05190 | 8.61538 | 816 ft | 139 kts | 250° |
| 2026-05-05 15:35 | 50.04859 | 8.60141 | 612 ft | 138 kts | 250° |
| 2026-05-05 15:35 | 50.04525 | 8.58750 | 427 ft | 139 kts | 250° |
| 2026-05-05 15:35 | 50.04212 | 8.57447 | 365 ft | 110 kts | 250° |
| 2026-05-05 15:36 | 50.04011 | 8.56592 | 358 ft | 63 kts | 250° |
| 2026-05-05 15:36 | 50.03896 | 8.56110 | 356 ft | 32 kts | 252° |
| 2026-05-05 15:36 | 50.03888 | 8.55836 | 355 ft | 24 kts | 279° |
| 2026-05-05 15:36 | 50.03905 | 8.55692 | 355 ft | 9 kts | 280° |
| 2026-05-05 15:37 | 50.03919 | 8.55613 | 355 ft | 7 kts | 298° |
| 2026-05-05 15:37 | 50.03947 | 8.55616 | 355 ft | 3 kts | 36° |
| 2026-05-05 15:37 | 50.03966 | 8.55640 | 356 ft | 6 kts | 39° |
| 2026-05-05 15:37 | 50.03994 | 8.55723 | 356 ft | 11 kts | 69° |
| 2026-05-05 15:38 | 50.04025 | 8.55852 | 356 ft | 13 kts | 69° |
| 2026-05-05 15:38 | 50.04056 | 8.55981 | 357 ft | 13 kts | 69° |
| 2026-05-05 15:38 | 50.04087 | 8.56107 | 357 ft | 12 kts | 69° |
| 2026-05-05 15:38 | 50.04116 | 8.56228 | 358 ft | 12 kts | 69° |
| 2026-05-05 15:39 | 50.04147 | 8.56358 | 359 ft | 13 kts | 70° |
| 2026-05-05 15:39 | 50.04179 | 8.56497 | 360 ft | 14 kts | 70° |
| 2026-05-05 15:39 | 50.04214 | 8.56644 | 361 ft | 15 kts | 70° |
| 2026-05-05 15:39 | 50.04251 | 8.56799 | 362 ft | 16 kts | 69° |
| 2026-05-05 15:40 | 50.04290 | 8.56961 | 363 ft | 16 kts | 69° |
| 2026-05-05 15:40 | 50.04328 | 8.57115 | 364 ft | 15 kts | 70° |
| 2026-05-05 15:40 | 50.04362 | 8.57263 | 365 ft | 14 kts | 70° |
| 2026-05-05 15:40 | 50.04395 | 8.57399 | 367 ft | 13 kts | 69° |
| 2026-05-05 15:41 | 50.04424 | 8.57519 | 368 ft | 11 kts | 70° |
| 2026-05-05 15:41 | 50.04448 | 8.57617 | 369 ft | 9 kts | 70° |
| 2026-05-05 15:41 | 50.04468 | 8.57707 | 370 ft | 8 kts | 70° |
| 2026-05-05 15:41 | 50.04486 | 8.57785 | 370 ft | 7 kts | 70° |
| 2026-05-05 15:42 | 50.04502 | 8.57854 | 371 ft | 7 kts | 70° |
| 2026-05-05 15:42 | 50.04520 | 8.57929 | 372 ft | 8 kts | 70° |
| 2026-05-05 15:42 | 50.04540 | 8.58010 | 373 ft | 8 kts | 69° |
| 2026-05-05 15:42 | 50.04562 | 8.58100 | 374 ft | 9 kts | 69° |
| 2026-05-05 15:43 | 50.04586 | 8.58196 | 375 ft | 10 kts | 69° |
| 2026-05-05 15:43 | 50.04612 | 8.58302 | 376 ft | 11 kts | 69° |
| 2026-05-05 15:43 | 50.04637 | 8.58405 | 377 ft | 10 kts | 69° |
| 2026-05-05 15:43 | 50.04660 | 8.58500 | 378 ft | 9 kts | 71° |
| 2026-05-05 15:44 | 50.04679 | 8.58586 | 379 ft | 8 kts | 70° |
| 2026-05-05 15:44 | 50.04697 | 8.58665 | 380 ft | 8 kts | 70° |
| 2026-05-05 15:44 | 50.04715 | 8.58743 | 380 ft | 8 kts | 69° |
| 2026-05-05 15:44 | 50.04737 | 8.58814 | 381 ft | 7 kts | 68° |
| 2026-05-05 15:45 | 50.04756 | 8.58888 | 382 ft | 8 kts | 68° |
| 2026-05-05 15:45 | 50.04776 | 8.58969 | 383 ft | 8 kts | 70° |
| 2026-05-05 15:45 | 50.04796 | 8.59057 | 383 ft | 9 kts | 70° |
| 2026-05-05 15:45 | 50.04818 | 8.59149 | 384 ft | 9 kts | 70° |
| 2026-05-05 15:46 | 50.04839 | 8.59238 | 385 ft | 9 kts | 70° |
| 2026-05-05 15:46 | 50.04862 | 8.59326 | 386 ft | 9 kts | 60° |
| 2026-05-05 15:46 | 50.04910 | 8.59371 | 386 ft | 8 kts | 14° |
| 2026-05-05 15:46 | 50.04966 | 8.59357 | 386 ft | 8 kts | 341° |
| 2026-05-05 15:47 | 50.05020 | 8.59325 | 387 ft | 8 kts | 339° |
| 2026-05-05 15:47 | 50.05067 | 8.59280 | 387 ft | 8 kts | 312° |
| 2026-05-05 15:47 | 50.05103 | 8.59229 | 387 ft | 6 kts | 330° |
| 2026-05-05 15:47 | 50.05135 | 8.59209 | 388 ft | 4 kts | 339° |
| 2026-05-05 15:48 | 50.05154 | 8.59198 | 388 ft | 2 kts | 339° |
| 2026-05-05 15:48 | 50.05165 | 8.59191 | 388 ft | 2 kts | 339° |
| 2026-05-05 15:48 | 50.05174 | 8.59186 | 388 ft | 0 kts | 339° |